
Distance (Route):
Temperature : 8.7°C
Humidity : 91.8%
Pressure : 0hPa| Receiver | Frames | First received | Last received |
|---|---|---|---|
| 9A1FER-3 | 422 | 2026-09-05 11:16:32 | 2026-09-05 13:08:01 |
| PETON7-10 | 112 | 2026-09-05 11:56:56 | 2026-09-05 12:55:39 |
| PG1ADW-2 | 83 | 2026-09-05 12:21:31 | 2026-09-05 12:57:49 |
| OM5KV | 56 | 2026-09-05 11:49:11 | 2026-09-05 11:53:19 |
| OE5DXL-15 | 23 | 2026-09-05 12:47:12 | 2026-09-05 12:58:50 |
| OE3JTB-15 | 12 | 2026-09-05 12:13:12 | 2026-09-05 13:04:02 |
| OE5DRO-10 | 10 | 2026-09-05 12:30:59 | 2026-09-05 12:58:51 |
| LZ4TU-5 | 8 | 2026-09-05 12:45:28 | 2026-09-05 12:54:10 |
| Receiver | Date | Latitude | Longitude | Direction | Speed | Altitude | Climb | Temperature | Humidity | Pressure | Voltage | Killtimer | Uptime | BKT | XDATA |
|---|---|---|---|---|---|---|---|---|---|---|---|---|---|---|---|
| 9A1FER-3 | 2026-09-05 13:08:01 | 45.75398 | 17.23349 | 74° | 44km/h | 2702m | -18.7m/s | 8.7°C | 91.8% | 0hPa | 2.6V | 00:00:00 | 02:03:50 | 00:00:00 | |
| 9A1FER-3 | 2026-09-05 13:07:51 | 45.75382 | 17.23193 | 88° | 51km/h | 2886m | -18.8m/s | 7.9°C | 78.5% | 0hPa | 2.6V | 00:00:00 | 02:03:40 | 00:00:00 | |
| 9A1FER-3 | 2026-09-05 13:07:41 | 45.75381 | 17.23007 | 92° | 62km/h | 3070m | -17.6m/s | 7.0°C | 62.1% | 0hPa | 2.6V | 00:00:00 | 02:03:30 | 00:00:00 | |
| 9A1FER-3 | 2026-09-05 13:07:26 | 45.75346 | 17.22674 | 81° | 64km/h | 3339m | -18.4m/s | 6.3°C | 53.7% | 0hPa | 2.6V | 00:00:00 | 02:03:15 | 00:00:00 | |
| 9A1FER-3 | 2026-09-05 13:07:11 | 45.75286 | 17.22342 | 79° | 62km/h | 3611m | -19.4m/s | 5.9°C | 57.2% | 0hPa | 2.6V | 00:00:00 | 02:03:00 | 00:00:00 | |
| 9A1FER-3 | 2026-09-05 13:06:56 | 45.75247 | 17.22016 | 82° | 62km/h | 3893m | -19.3m/s | 3.2°C | 76.5% | 0hPa | 2.6V | 08:19:00 | 02:02:45 | 00:00:00 | |
| 9A1FER-3 | 2026-09-05 13:06:41 | 45.75236 | 17.21673 | 82° | 64km/h | 4172m | -19.8m/s | 0.9°C | 83.1% | 0hPa | 2.6V | 00:00:00 | 02:02:30 | 00:00:00 | |
| 9A1FER-3 | 2026-09-05 13:06:26 | 45.75184 | 17.21338 | 71° | 66km/h | 4456m | -19.6m/s | -1.2°C | 63.8% | 0hPa | 2.6V | 00:00:00 | 02:02:15 | 00:00:00 | |
| 9A1FER-3 | 2026-09-05 13:06:11 | 45.75135 | 17.20991 | 83° | 73km/h | 4748m | -17.6m/s | -3.8°C | 86.0% | 0hPa | 2.6V | 00:00:00 | 02:02:00 | 00:00:00 | |
| 9A1FER-3 | 2026-09-05 13:05:56 | 45.75105 | 17.20604 | 84° | 78km/h | 5033m | -19.9m/s | -5.8°C | 78.2% | 0hPa | 2.6V | 00:00:00 | 02:01:45 | 00:00:00 | |
| 9A1FER-3 | 2026-09-05 13:05:41 | 45.75083 | 17.20179 | 84° | 78km/h | 5332m | -22.8m/s | -7.4°C | 23.0% | 0hPa | 2.6V | 00:00:00 | 02:01:30 | 00:00:00 | |
| 9A1FER-3 | 2026-09-05 13:05:26 | 45.75064 | 17.19759 | 87° | 78km/h | 5661m | -23.0m/s | -9.0°C | 24.7% | 0hPa | 2.6V | 00:00:00 | 02:01:15 | 00:00:00 | |
| 9A1FER-3 | 2026-09-05 13:05:11 | 45.75043 | 17.19328 | 85° | 80km/h | 5995m | -23.1m/s | -11.2°C | 21.0% | 0hPa | 2.6V | 00:00:00 | 02:01:00 | 00:00:00 | |
| 9A1FER-3 | 2026-09-05 13:04:56 | 45.75015 | 17.18893 | 87° | 77km/h | 6334m | -23.5m/s | -14.0°C | 67.2% | 0hPa | 2.6V | 00:00:00 | 02:00:45 | 00:00:00 | |
| 9A1FER-3 | 2026-09-05 13:04:41 | 45.74993 | 17.18482 | 90° | 84km/h | 6675m | -23.4m/s | -16.1°C | 75.6% | 0hPa | 2.6V | 08:21:00 | 02:00:30 | 00:00:00 | |
| 9A1FER-3 | 2026-09-05 13:04:26 | 45.75032 | 17.18034 | 104° | 86km/h | 7017m | -23.5m/s | -17.6°C | 0% | 0hPa | 2.5V | 00:00:00 | 02:00:15 | 00:00:00 | |
| 9A1FER-3 | 2026-09-05 13:04:11 | 45.75107 | 17.17585 | 101° | 95km/h | 7364m | -23.4m/s | -19.8°C | 88.2% | 0hPa | 2.5V | 00:00:00 | 02:00:00 | 00:00:00 | |
| OE3JTB-15 | 2026-09-05 13:04:02 | 45.75149 | 17.17284 | 102° | 95km/h | 7573m | -23.8m/s | -21.0°C | 86.4% | 0hPa | 2.5V | 00:00:00 | 00:00:00 | 00:00:00 | |
| 9A1FER-3 | 2026-09-05 13:03:56 | 45.75174 | 17.17085 | 100° | 97km/h | 7718m | -24.6m/s | -22.1°C | 92.0% | 0hPa | 2.5V | 00:00:00 | 01:59:45 | 00:00:00 | |
| 9A1FER-3 | 2026-09-05 13:03:41 | 45.75228 | 17.16559 | 98° | 93km/h | 8078m | -24.7m/s | -24.9°C | 89.0% | 0hPa | 2.5V | 00:00:00 | 01:59:30 | 00:00:00 | |
| OE3JTB-15 | 2026-09-05 13:03:33 | 45.75249 | 17.16291 | 97° | 95km/h | 8263m | -24.3m/s | -26.4°C | 87.8% | 0hPa | 2.5V | 00:00:00 | 00:00:00 | 00:00:00 | |
| 9A1FER-3 | 2026-09-05 13:03:11 | 45.75324 | 17.15552 | 100° | 100km/h | 8774m | -26.6m/s | -30.8°C | 87.8% | 0hPa | 2.5V | 00:00:00 | 01:59:00 | 00:00:00 | |
| OE3JTB-15 | 2026-09-05 13:03:04 | 45.75353 | 17.15301 | 103° | 91km/h | 8961m | -26.4m/s | -32.1°C | 55.8% | 0hPa | 2.6V | 00:00:00 | 01:58:53 | 00:00:00 | |
| 9A1FER-3 | 2026-09-05 13:02:56 | 45.75399 | 17.15021 | 105° | 89km/h | 9173m | -26.2m/s | -33.1°C | 31.0% | 0hPa | 2.6V | 00:00:00 | 01:58:45 | 00:00:00 | |
| 9A1FER-3 | 2026-09-05 13:02:41 | 45.75484 | 17.14551 | 106° | 88km/h | 9584m | -28.3m/s | -36.2°C | 24.9% | 0hPa | 2.6V | 00:00:00 | 01:58:30 | 00:00:00 | |
| OE3JTB-15 | 2026-09-05 13:02:35 | 45.75527 | 17.14366 | 111° | 95km/h | 9757m | -29.0m/s | -37.7°C | 27.1% | 0hPa | 2.6V | 08:23:00 | 00:00:00 | 00:00:00 | |
| 9A1FER-3 | 2026-09-05 13:02:26 | 45.75589 | 17.14100 | 108° | 97km/h | 10008m | -29.1m/s | -39.6°C | 21.0% | 0hPa | 2.6V | 08:23:00 | 01:58:15 | 00:00:00 | |
| 9A1FER-3 | 2026-09-05 13:02:11 | 45.75693 | 17.13607 | 106° | 104km/h | 10456m | -30.0m/s | -43.2°C | 32.3% | 0hPa | 2.5V | 00:00:00 | 01:58:00 | 00:00:00 | |
| OE3JTB-15 | 2026-09-05 13:02:06 | 45.75726 | 17.13432 | 107° | 111km/h | 10604m | -30.8m/s | -44.4°C | 30.2% | 0hPa | 2.5V | 00:00:00 | 00:00:00 | 00:00:00 | |
| 9A1FER-3 | 2026-09-05 13:01:56 | 45.75802 | 17.13066 | 109° | 111km/h | 10881m | -31.6m/s | -46.9°C | 27.1% | 0hPa | 2.5V | 00:00:00 | 01:57:45 | 00:00:00 | |
| 9A1FER-3 | 2026-09-05 13:01:41 | 45.75964 | 17.12502 | 113° | 119km/h | 11300m | -34.5m/s | -50.9°C | 27.7% | 0hPa | 2.5V | 00:00:00 | 01:57:30 | 00:00:00 | |
| OE3JTB-15 | 2026-09-05 13:01:37 | 45.76015 | 17.12340 | 117° | 106km/h | 11434m | -33.9m/s | -51.7°C | 26.3% | 0hPa | 2.7V | 00:00:00 | 01:57:26 | 00:00:00 | |
| 9A1FER-3 | 2026-09-05 13:01:26 | 45.76136 | 17.11918 | 108° | 100km/h | 11810m | -34.2m/s | -52.2°C | 27.4% | 0hPa | 2.7V | 00:00:00 | 01:57:15 | 00:00:00 | |
| 9A1FER-3 | 2026-09-05 13:01:11 | 45.76265 | 17.11405 | 112° | 88km/h | 12341m | -35.6m/s | -56.0°C | 27.1% | 0hPa | 2.7V | 00:00:00 | 01:57:00 | 00:00:00 | |
| OE3JTB-15 | 2026-09-05 13:01:08 | 45.76288 | 17.11308 | 106° | 82km/h | 12454m | -35.5m/s | -56.6°C | 26.5% | 0hPa | 2.7V | 00:00:00 | 00:00:00 | 00:00:00 | |
| 9A1FER-3 | 2026-09-05 13:00:56 | 45.76370 | 17.10942 | 117° | 78km/h | 12892m | -36.1m/s | -60.0°C | 25.1% | 0hPa | 2.6V | 00:00:00 | 01:56:45 | 00:00:00 | |
| 9A1FER-3 | 2026-09-05 13:00:41 | 45.76471 | 17.10548 | 95° | 95km/h | 13456m | -37.6m/s | -62.1°C | 20.1% | 0hPa | 2.6V | 00:00:00 | 01:56:30 | 00:00:00 | |
| OE3JTB-15 | 2026-09-05 13:00:39 | 45.76473 | 17.10490 | 94° | 99km/h | 13536m | -38.1m/s | -62.5°C | 19.6% | 0hPa | 2.6V | 00:00:00 | 00:00:00 | 00:00:00 | |
| 9A1FER-3 | 2026-09-05 13:00:26 | 45.76495 | 17.10027 | 100° | 100km/h | 14063m | -38.3m/s | -65.3°C | 14.2% | 0hPa | 2.6V | 00:00:00 | 01:56:15 | 00:00:00 | |
| 9A1FER-3 | 2026-09-05 13:00:11 | 45.76586 | 17.09482 | 100° | 91km/h | 14648m | -41.3m/s | -60.1°C | 8.1% | 0hPa | 2.6V | 08:26:00 | 01:56:00 | 00:00:00 | |
| OE3JTB-15 | 2026-09-05 13:00:10 | 45.76593 | 17.09448 | 100° | 69km/h | 14680m | -41.0m/s | 0°C | 0% | 0hPa | 2.5V | 00:00:00 | 01:55:59 | 00:00:00 | |
| 9A1FER-3 | 2026-09-05 12:59:56 | 45.76595 | 17.09031 | 96° | 75km/h | 15067m | -42.7m/s | -59.7°C | 7.1% | 0hPa | 2.5V | 00:00:00 | 01:55:45 | 00:00:00 | |
| 9A1FER-3 | 2026-09-05 12:59:41 | 45.76627 | 17.08629 | 90° | 62km/h | 15730m | -45.7m/s | -59.7°C | 6.4% | 0hPa | 2.5V | 00:00:00 | 01:55:30 | 00:00:00 | |
| 9A1FER-3 | 2026-09-05 12:59:26 | 45.76638 | 17.08280 | 84° | 53km/h | 16474m | -47.7m/s | -58.6°C | 5.9% | 0hPa | 2.5V | 00:00:00 | 01:55:15 | 00:00:00 | |
| 9A1FER-3 | 2026-09-05 12:59:11 | 45.76613 | 17.08009 | 103° | 38km/h | 17252m | -48.0m/s | -59.2°C | 6.4% | 0hPa | 2.7V | 00:00:00 | 01:55:00 | 00:00:00 | |
| 9A1FER-3 | 2026-09-05 12:58:56 | 45.76631 | 17.07813 | 86° | 31km/h | 18028m | -50.1m/s | -56.1°C | 4.9% | 0hPa | 2.7V | 00:00:00 | 01:54:45 | 00:00:00 | |
| OE5DRO-10 | 2026-09-05 12:58:51 | 45.76627 | 17.07760 | 78° | 22km/h | 18286m | -49.4m/s | -56.0°C | 4.8% | 0hPa | 2.7V | 00:00:00 | 00:00:00 | 00:00:00 | |
| OE5DXL-15 | 2026-09-05 12:58:50 | 45.76624 | 17.07749 | 75° | 31km/h | 18337m | -49.4m/s | -56.2°C | 4.9% | 0hPa | 2.7V | 00:00:00 | 00:00:00 | 00:00:00 | |
| 9A1FER-3 | 2026-09-05 12:58:41 | 45.76605 | 17.07636 | 65° | 35km/h | 18826m | -51.9m/s | -54.8°C | 4.5% | 0hPa | 2.6V | 00:00:00 | 01:54:30 | 00:00:00 | |
| 9A1FER-3 | 2026-09-05 12:58:26 | 45.76528 | 17.07450 | 96° | 27km/h | 19652m | -57.6m/s | -54.5°C | 4.4% | 0hPa | 2.7V | 00:00:00 | 01:54:15 | 00:00:00 | |
| OE5DXL-15 | 2026-09-05 12:58:20 | 45.76528 | 17.07387 | 92° | 13km/h | 19994m | -57.4m/s | -53.9°C | 4.2% | 0hPa | 2.7V | 00:00:00 | 00:00:00 | 00:00:00 | |
| 9A1FER-3 | 2026-09-05 12:58:11 | 45.76545 | 17.07328 | 94° | 11km/h | 20403m | -60.7m/s | -54.8°C | 4.8% | 0hPa | 2.7V | 00:00:00 | 01:54:00 | 00:00:00 | |
| 9A1FER-3 | 2026-09-05 12:57:56 | 45.76547 | 17.07275 | 96° | 9km/h | 21359m | -60.2m/s | -53.7°C | 4.6% | 0hPa | 2.7V | 08:28:00 | 01:53:45 | 00:00:00 | |
| PG1ADW-2 | 2026-09-05 12:57:49 | 45.76549 | 17.07258 | 71° | 16km/h | 21788m | -61.9m/s | -51.6°C | 3.9% | 0hPa | 2.6V | 00:00:00 | 00:00:00 | 00:00:00 | |
| OE5DXL-15 | 2026-09-05 12:57:48 | 45.76548 | 17.07255 | 74° | 15km/h | 21851m | -62.7m/s | -51.5°C | 3.9% | 0hPa | 2.6V | 00:00:00 | 00:00:00 | 00:00:00 | |
| 9A1FER-3 | 2026-09-05 12:57:41 | 45.76538 | 17.07236 | 19° | 20km/h | 22306m | -64.7m/s | -52.6°C | 4.2% | 0hPa | 2.6V | 00:00:00 | 01:53:30 | 00:00:00 | |
| 9A1FER-3 | 2026-09-05 12:57:26 | 45.76482 | 17.07169 | 67° | 16km/h | 23335m | -67.0m/s | -51.9°C | 4.1% | 0hPa | 2.6V | 00:00:00 | 01:53:15 | 00:00:00 | |
| OE5DXL-15 | 2026-09-05 12:57:18 | 45.76463 | 17.07125 | 59° | 15km/h | 23871m | -67.5m/s | -51.7°C | 4.3% | 0hPa | 2.6V | 00:00:00 | 00:00:00 | 00:00:00 | |
| OE5DRO-10 | 2026-09-05 12:57:15 | 45.76459 | 17.07109 | 80° | 15km/h | 24073m | -67.6m/s | -51.7°C | 4.4% | 0hPa | 2.6V | 00:00:00 | 00:00:00 | 00:00:00 | |
| 9A1FER-3 | 2026-09-05 12:57:11 | 45.76457 | 17.07089 | 90° | 16km/h | 24343m | -68.1m/s | -51.3°C | 4.4% | 0hPa | 2.6V | 00:00:00 | 01:53:00 | 00:00:00 | |
| PG1ADW-2 | 2026-09-05 12:57:09 | 45.76457 | 17.07079 | 99° | 15km/h | 24480m | -68.1m/s | -51.1°C | 4.4% | 0hPa | 2.5V | 00:00:00 | 01:52:58 | 00:00:00 | |
| 9A1FER-3 | 2026-09-05 12:56:54 | 45.76430 | 17.07011 | 76° | 15km/h | 25564m | -74.2m/s | -46.3°C | 3.0% | 0hPa | 2.7V | 00:00:00 | 01:52:43 | 00:00:00 | |
| PG1ADW-2 | 2026-09-05 12:56:49 | 45.76431 | 17.06987 | 125° | 16km/h | 25935m | -74.5m/s | -46.6°C | 3.2% | 0hPa | 2.7V | 00:00:00 | 00:00:00 | 00:00:00 | |
| OE5DXL-15 | 2026-09-05 12:56:48 | 45.76433 | 17.06982 | 112° | 15km/h | 26010m | -75.3m/s | -46.2°C | 3.1% | 0hPa | 2.7V | 00:00:00 | 00:00:00 | 00:00:00 | |
| PG1ADW-2 | 2026-09-05 12:56:29 | 45.76456 | 17.06876 | 103° | 9km/h | 27505m | -80.5m/s | -45.4°C | 3.4% | 0hPa | 2.7V | 00:00:00 | 00:00:00 | 00:00:00 | |
| 9A1FER-3 | 2026-09-05 12:56:24 | 45.76461 | 17.06851 | 108° | 7km/h | 27920m | -85.1m/s | -43.9°C | 3.0% | 0hPa | 2.7V | 00:00:00 | 01:52:13 | 00:00:00 | |
| OE5DXL-15 | 2026-09-05 12:56:18 | 45.76463 | 17.06835 | 110° | 11km/h | 28435m | -86.9m/s | -41.7°C | 2.5% | 0hPa | 2.7V | 00:00:00 | 00:00:00 | 00:00:00 | |
| PG1ADW-2 | 2026-09-05 12:56:09 | 45.76471 | 17.06813 | 113° | 11km/h | 29225m | -86.8m/s | -39.8°C | 2.0% | 0hPa | 2.7V | 00:00:00 | 00:00:00 | 08:30:00 | |
| 9A1FER-3 | 2026-09-05 12:55:54 | 45.76453 | 17.06782 | 29° | 20km/h | 30390m | -58.7m/s | -42.8°C | 2.4% | 0hPa | 2.6V | 00:00:00 | 01:51:43 | 00:00:00 | |
| PG1ADW-2 | 2026-09-05 12:55:49 | 45.76437 | 17.06765 | 44° | 18km/h | 30605m | -24.5m/s | -43.7°C | 2.7% | 0hPa | 2.6V | 00:00:00 | 01:51:38 | 00:00:00 | |
| OE5DXL-15 | 2026-09-05 12:55:48 | 45.76434 | 17.06761 | 45° | 20km/h | 30625m | -16.6m/s | -43.7°C | 2.7% | 0hPa | 2.6V | 00:00:00 | 00:00:00 | 08:30:00 | |
| PETON7-10 | 2026-09-05 12:55:39 | 45.76389 | 17.06729 | 18° | 18km/h | 30598m | 5.9m/s | -43.6°C | 2.7% | 0hPa | 2.7V | 00:00:00 | 00:00:00 | 00:00:00 | |
| PG1ADW-2 | 2026-09-05 12:55:29 | 45.76352 | 17.06714 | 357° | 22km/h | 30538m | 6.7m/s | -43.5°C | 2.7% | 0hPa | 2.6V | 00:00:00 | 00:00:00 | 00:00:00 | |
| 9A1FER-3 | 2026-09-05 12:55:24 | 45.76320 | 17.06714 | 5° | 22km/h | 30506m | 5.6m/s | -43.5°C | 2.6% | 0hPa | 2.6V | 00:00:00 | 01:51:13 | 00:00:00 | |
| OE5DXL-15 | 2026-09-05 12:55:18 | 45.76291 | 17.06717 | 351° | 18km/h | 30468m | 5.2m/s | -43.3°C | 2.6% | 0hPa | 2.6V | 00:00:00 | 00:00:00 | 00:00:00 | |
| 9A1FER-3 | 2026-09-05 12:55:09 | 45.76241 | 17.06738 | 347° | 20km/h | 30411m | 6.5m/s | -43.6°C | 2.6% | 0hPa | 2.6V | 00:00:00 | 01:50:58 | 00:00:00 | |
| OE5DRO-10 | 2026-09-05 12:54:52 | 45.76168 | 17.06775 | 354° | 5km/h | 30306m | 7.0m/s | -43.8°C | 2.7% | 0hPa | 2.6V | 00:00:00 | 00:00:00 | 08:30:00 | |
| PG1ADW-2 | 2026-09-05 12:54:49 | 45.76162 | 17.06774 | 345° | 5km/h | 30289m | 6.8m/s | -43.7°C | 2.7% | 0hPa | 2.6V | 00:00:00 | 00:00:00 | 00:00:00 | |
| OE5DXL-15 | 2026-09-05 12:54:48 | 45.76161 | 17.06775 | 313° | 5km/h | 30283m | 5.9m/s | -43.8°C | 2.6% | 0hPa | 2.6V | 00:00:00 | 00:00:00 | 00:00:00 | |
| 9A1FER-3 | 2026-09-05 12:54:39 | 45.76150 | 17.06799 | 262° | 4km/h | 30230m | 5.9m/s | -43.9°C | 2.8% | 0hPa | 2.6V | 00:00:00 | 01:50:28 | 00:00:00 | |
| OE5DRO-10 | 2026-09-05 12:54:31 | 45.76149 | 17.06803 | 7° | 5km/h | 30181m | 6.5m/s | -44.0°C | 2.6% | 0hPa | 2.6V | 00:00:00 | 00:00:00 | 00:00:00 | |
| PG1ADW-2 | 2026-09-05 12:54:29 | 45.76147 | 17.06803 | 329° | 7km/h | 30170m | 5.0m/s | -43.9°C | 2.7% | 0hPa | 2.6V | 00:00:00 | 01:50:18 | 00:00:00 | |
| OE5DXL-15 | 2026-09-05 12:54:18 | 45.76160 | 17.06810 | 178° | 9km/h | 30106m | 5.6m/s | -43.7°C | 2.8% | 0hPa | 2.6V | 00:00:00 | 00:00:00 | 00:00:00 | |
| OE5DRO-10 | 2026-09-05 12:54:12 | 45.76167 | 17.06804 | 165° | 15km/h | 30068m | 5.1m/s | -43.5°C | 2.8% | 0hPa | 2.6V | 00:00:00 | 00:00:00 | 00:00:00 | |
| LZ4TU-5 | 2026-09-05 12:54:10 | 45.76169 | 17.06803 | 159° | 11km/h | 30063m | 5.3m/s | -43.6°C | 0% | 0hPa | 2.6V | 00:00:00 | 00:00:00 | 00:00:00 | |
| PETON7-10 | 2026-09-05 12:54:09 | 45.76174 | 17.06798 | 131° | 9km/h | 30050m | 5.6m/s | -43.6°C | 2.7% | 0hPa | 2.6V | 00:00:00 | 00:00:00 | 00:00:00 | |
| LZ4TU-5 | 2026-09-05 12:54:05 | 45.76181 | 17.06787 | 151° | 13km/h | 30034m | 6.6m/s | -43.7°C | 0% | 0hPa | 2.6V | 00:00:00 | 00:00:00 | 00:00:00 | |
| 9A1FER-3 | 2026-09-05 12:53:54 | 45.76201 | 17.06776 | 131° | 11km/h | 29962m | 5.4m/s | -43.0°C | 2.6% | 0hPa | 2.6V | 00:00:00 | 01:49:43 | 00:00:00 | |
| PG1ADW-2 | 2026-09-05 12:53:49 | 45.76217 | 17.06760 | 156° | 9km/h | 29934m | 6.7m/s | -43.0°C | 2.6% | 0hPa | 2.6V | 00:00:00 | 00:00:00 | 00:00:00 | |
| OE5DXL-15 | 2026-09-05 12:53:48 | 45.76219 | 17.06758 | 138° | 13km/h | 29927m | 6.9m/s | -42.9°C | 2.6% | 0hPa | 2.6V | 00:00:00 | 00:00:00 | 00:00:00 | |
| 9A1FER-3 | 2026-09-05 12:53:39 | 45.76226 | 17.06737 | 115° | 13km/h | 29873m | 5.6m/s | -42.8°C | 2.6% | 0hPa | 2.6V | 00:00:00 | 01:49:28 | 00:00:00 | |
| PETON7-10 | 2026-09-05 12:53:38 | 45.76228 | 17.06732 | 125° | 15km/h | 29867m | 7.0m/s | -42.8°C | 2.6% | 0hPa | 2.6V | 00:00:00 | 01:49:27 | 00:00:00 | |
| PG1ADW-2 | 2026-09-05 12:53:29 | 45.76245 | 17.06708 | 150° | 18km/h | 29812m | 4.8m/s | -42.9°C | 2.7% | 0hPa | 2.6V | 00:00:00 | 00:00:00 | 00:00:00 | |
| 9A1FER-3 | 2026-09-05 12:53:24 | 45.76261 | 17.06683 | 140° | 18km/h | 29781m | 7.1m/s | -42.7°C | 2.7% | 0hPa | 2.6V | 00:00:00 | 01:49:13 | 08:30:00 | |
| PETON7-10 | 2026-09-05 12:53:23 | 45.76266 | 17.06677 | 145° | 18km/h | 29775m | 5.1m/s | -42.7°C | 2.6% | 0hPa | 2.7V | 00:00:00 | 00:00:00 | 00:00:00 | |
| OE5DXL-15 | 2026-09-05 12:53:18 | 45.76282 | 17.06657 | 141° | 15km/h | 29745m | 6.6m/s | -42.4°C | 2.6% | 0hPa | 2.6V | 00:00:00 | 00:00:00 | 00:00:00 | |
| 9A1FER-3 | 2026-09-05 12:53:09 | 45.76307 | 17.06614 | 140° | 15km/h | 29693m | 5.5m/s | -42.3°C | 2.6% | 0hPa | 2.6V | 00:00:00 | 01:48:58 | 00:00:00 | |
| PETON7-10 | 2026-09-05 12:53:08 | 45.76312 | 17.06608 | 144° | 13km/h | 29688m | 4.9m/s | -42.3°C | 2.6% | 0hPa | 2.6V | 00:00:00 | 00:00:00 | 00:00:00 | |
| 9A1FER-3 | 2026-09-05 12:52:54 | 45.76334 | 17.06558 | 130° | 13km/h | 29604m | 5.9m/s | -42.0°C | 2.5% | 0hPa | 2.6V | 00:00:00 | 01:48:43 | 00:00:00 | |
| PETON7-10 | 2026-09-05 12:52:53 | 45.76336 | 17.06554 | 126° | 13km/h | 29598m | 6.5m/s | -42.1°C | 2.5% | 0hPa | 2.6V | 00:00:00 | 01:48:42 | 00:00:00 | |
| PG1ADW-2 | 2026-09-05 12:52:49 | 45.76344 | 17.06540 | 144° | 15km/h | 29574m | 6.4m/s | -42.0°C | 2.5% | 0hPa | 2.6V | 00:00:00 | 00:00:00 | 00:00:00 | |
| 9A1FER-3 | 2026-09-05 12:52:39 | 45.76359 | 17.06496 | 113° | 15km/h | 29514m | 5.7m/s | -42.0°C | 2.5% | 0hPa | 2.6V | 00:00:00 | 01:48:28 | 00:00:00 | |
| PETON7-10 | 2026-09-05 12:52:38 | 45.76361 | 17.06490 | 120° | 15km/h | 29508m | 5.7m/s | -42.0°C | 2.5% | 0hPa | 2.6V | 00:00:00 | 00:00:00 | 08:30:00 | |
| OE5DRO-10 | 2026-09-05 12:52:34 | 45.76371 | 17.06469 | 115° | 15km/h | 29485m | 7.0m/s | 0°C | 0% | 0hPa | 2.6V | 00:00:00 | 00:00:00 | 00:00:00 | |
| PG1ADW-2 | 2026-09-05 12:52:29 | 45.76373 | 17.06443 | 97° | 13km/h | 29454m | 5.3m/s | -41.8°C | 2.5% | 0hPa | 2.6V | 00:00:00 | 00:00:00 | 00:00:00 | |
| PETON7-10 | 2026-09-05 12:52:23 | 45.76373 | 17.06417 | 118° | 13km/h | 29419m | 6.0m/s | -41.7°C | 2.5% | 0hPa | 2.6V | 00:00:00 | 00:00:00 | 00:00:00 | |
| OE5DXL-15 | 2026-09-05 12:52:18 | 45.76379 | 17.06387 | 100° | 13km/h | 29390m | 5.9m/s | -41.7°C | 2.5% | 0hPa | 2.6V | 00:00:00 | 00:00:00 | 00:00:00 | |
| OE5DRO-10 | 2026-09-05 12:52:13 | 45.76380 | 17.06365 | 48° | 11km/h | 29360m | 5.6m/s | 0°C | 0% | 0hPa | 2.6V | 00:00:00 | 00:00:00 | 00:00:00 | |
| PG1ADW-2 | 2026-09-05 12:52:09 | 45.76379 | 17.06358 | 113° | 13km/h | 29337m | 4.4m/s | -41.4°C | 2.5% | 0hPa | 2.6V | 00:00:00 | 00:00:00 | 00:00:00 | |
| PETON7-10 | 2026-09-05 12:52:08 | 45.76379 | 17.06355 | 101° | 11km/h | 29332m | 6.1m/s | -41.5°C | 2.5% | 0hPa | 2.7V | 00:00:00 | 01:47:57 | 00:00:00 | |
| 9A1FER-3 | 2026-09-05 12:51:54 | 45.76397 | 17.06307 | 127° | 15km/h | 29249m | 6.2m/s | -41.6°C | 2.5% | 0hPa | 2.7V | 00:00:00 | 01:47:43 | 00:00:00 | |
| PETON7-10 | 2026-09-05 12:51:53 | 45.76399 | 17.06302 | 120° | 13km/h | 29243m | 5.1m/s | -41.6°C | 2.5% | 0hPa | 2.7V | 00:00:00 | 00:00:00 | 00:00:00 | |
| PG1ADW-2 | 2026-09-05 12:51:49 | 45.76410 | 17.06280 | 129° | 11km/h | 29221m | 5.5m/s | -41.6°C | 2.5% | 0hPa | 2.6V | 00:00:00 | 01:47:38 | 00:00:00 | |
| OE5DXL-15 | 2026-09-05 12:51:47 | 45.76414 | 17.06270 | 109° | 13km/h | 29209m | 5.6m/s | -41.7°C | 2.5% | 0hPa | 2.6V | 00:00:00 | 00:00:00 | 00:00:00 | |
| 9A1FER-3 | 2026-09-05 12:51:39 | 45.76427 | 17.06251 | 129° | 13km/h | 29163m | 4.7m/s | -41.7°C | 2.5% | 0hPa | 2.6V | 00:00:00 | 01:47:28 | 00:00:00 | |
| PETON7-10 | 2026-09-05 12:51:38 | 45.76429 | 17.06248 | 132° | 15km/h | 29158m | 4.8m/s | -41.8°C | 2.5% | 0hPa | 2.6V | 00:00:00 | 00:00:00 | 00:00:00 | |
| OE5DRO-10 | 2026-09-05 12:51:35 | 45.76436 | 17.06240 | 148° | 13km/h | 29141m | 5.1m/s | 0°C | 0% | 0hPa | 2.6V | 00:00:00 | 00:00:00 | 00:00:00 | |
| PG1ADW-2 | 2026-09-05 12:51:29 | 45.76447 | 17.06221 | 141° | 15km/h | 29107m | 5.8m/s | -42.1°C | 2.5% | 0hPa | 2.6V | 00:00:00 | 00:00:00 | 00:00:00 | |
| LZ4TU-5 | 2026-09-05 12:51:27 | 45.76450 | 17.06218 | 140° | 15km/h | 29101m | 5.7m/s | -42.1°C | 0% | 0hPa | 2.6V | 00:00:00 | 00:00:00 | 00:00:00 | |
| 9A1FER-3 | 2026-09-05 12:51:24 | 45.76462 | 17.06199 | 133° | 15km/h | 29077m | 6.9m/s | -42.2°C | 2.4% | 0hPa | 2.6V | 00:00:00 | 01:47:13 | 00:00:00 | |
| PETON7-10 | 2026-09-05 12:51:23 | 45.76465 | 17.06193 | 139° | 15km/h | 29071m | 5.7m/s | -42.2°C | 2.5% | 0hPa | 2.6V | 00:00:00 | 01:47:12 | 00:00:00 | |
| LZ4TU-5 | 2026-09-05 12:51:22 | 45.76465 | 17.06193 | 140° | 20km/h | 29071m | 5.7m/s | -42.3°C | 0% | 0hPa | 2.6V | 00:00:00 | 00:00:00 | 00:00:00 | |
| OE5DXL-15 | 2026-09-05 12:51:17 | 45.76482 | 17.06166 | 136° | 13km/h | 29037m | 5.4m/s | -42.5°C | 2.5% | 0hPa | 2.6V | 00:00:00 | 00:00:00 | 08:30:00 | |
| 9A1FER-3 | 2026-09-05 12:51:09 | 45.76494 | 17.06142 | 123° | 11km/h | 28992m | 4.9m/s | -42.8°C | 2.6% | 0hPa | 2.7V | 00:00:00 | 01:46:58 | 08:30:00 | |
| PETON7-10 | 2026-09-05 12:51:08 | 45.76496 | 17.06136 | 111° | 11km/h | 28986m | 6.8m/s | -43.0°C | 2.5% | 0hPa | 2.6V | 00:00:00 | 00:00:00 | 00:00:00 | |
| 9A1FER-3 | 2026-09-05 12:50:54 | 45.76499 | 17.06086 | 109° | 15km/h | 28907m | 4.7m/s | -43.4°C | 2.7% | 0hPa | 2.6V | 00:00:00 | 01:46:43 | 00:00:00 | |
| PETON7-10 | 2026-09-05 12:50:53 | 45.76500 | 17.06082 | 116° | 16km/h | 28901m | 6.7m/s | -43.3°C | 2.7% | 0hPa | 2.6V | 00:00:00 | 00:00:00 | 00:00:00 | |
| OE5DXL-15 | 2026-09-05 12:50:47 | 45.76508 | 17.06041 | 100° | 15km/h | 28867m | 6.5m/s | -43.3°C | 2.6% | 0hPa | 2.6V | 00:00:00 | 00:00:00 | 00:00:00 | |
| 9A1FER-3 | 2026-09-05 12:50:39 | 45.76513 | 17.06005 | 128° | 15km/h | 28822m | 5.3m/s | -43.5°C | 2.6% | 0hPa | 2.6V | 00:00:00 | 01:46:28 | 00:00:00 | |
| PETON7-10 | 2026-09-05 12:50:38 | 45.76517 | 17.05998 | 125° | 15km/h | 28817m | 4.9m/s | -43.6°C | 2.6% | 0hPa | 2.6V | 00:00:00 | 01:46:27 | 00:00:00 | |
| PG1ADW-2 | 2026-09-05 12:50:30 | 45.76524 | 17.05962 | 2° | 11km/h | 28765m | 4.5m/s | -44.0°C | 2.7% | 0hPa | 2.6V | 00:00:00 | 01:46:18 | 00:00:00 | |
| 9A1FER-3 | 2026-09-05 12:50:24 | 45.76518 | 17.05947 | 85° | 11km/h | 28736m | 6.2m/s | -44.1°C | 2.7% | 0hPa | 2.6V | 00:00:00 | 01:46:13 | 00:00:00 | |
| PETON7-10 | 2026-09-05 12:50:23 | 45.76517 | 17.05939 | 92° | 9km/h | 28730m | 5.1m/s | -44.2°C | 2.7% | 0hPa | 2.6V | 00:00:00 | 00:00:00 | 08:30:00 | |
| OE5DXL-15 | 2026-09-05 12:50:17 | 45.76522 | 17.05903 | 63° | 7km/h | 28696m | 4.9m/s | -44.4°C | 2.7% | 0hPa | 2.7V | 00:00:00 | 00:00:00 | 00:00:00 | |
| PG1ADW-2 | 2026-09-05 12:50:09 | 45.76525 | 17.05901 | 94° | 9km/h | 28652m | 4.9m/s | -44.7°C | 2.8% | 0hPa | 2.7V | 00:00:00 | 00:00:00 | 08:30:00 | |
| PETON7-10 | 2026-09-05 12:50:08 | 45.76526 | 17.05898 | 113° | 9km/h | 28646m | 6.5m/s | -44.8°C | 2.8% | 0hPa | 2.7V | 00:00:00 | 00:00:00 | 00:00:00 | |
| 9A1FER-3 | 2026-09-05 12:49:54 | 45.76536 | 17.05860 | 104° | 9km/h | 28566m | 5.0m/s | -44.9°C | 2.9% | 0hPa | 2.7V | 00:00:00 | 01:45:43 | 00:00:00 | |
| PETON7-10 | 2026-09-05 12:49:53 | 45.76537 | 17.05855 | 103° | 9km/h | 28561m | 4.3m/s | -44.8°C | 2.9% | 0hPa | 2.7V | 00:00:00 | 01:45:42 | 00:00:00 | |
| PG1ADW-2 | 2026-09-05 12:49:49 | 45.76536 | 17.05835 | 74° | 7km/h | 28538m | 5.1m/s | -45.1°C | 2.8% | 0hPa | 2.7V | 00:00:00 | 00:00:00 | 00:00:00 | |
| OE5DXL-15 | 2026-09-05 12:49:46 | 45.76536 | 17.05829 | 139° | 7km/h | 28521m | 4.9m/s | -44.8°C | 2.8% | 0hPa | 2.7V | 00:00:00 | 00:00:00 | 00:00:00 | |
| 9A1FER-3 | 2026-09-05 12:49:39 | 45.76534 | 17.05811 | 77° | 7km/h | 28480m | 6.4m/s | -45.2°C | 2.9% | 0hPa | 2.6V | 00:00:00 | 01:45:28 | 00:00:00 | |
| PETON7-10 | 2026-09-05 12:49:38 | 45.76533 | 17.05808 | 60° | 5km/h | 28474m | 6.3m/s | -45.0°C | 2.9% | 0hPa | 2.6V | 00:00:00 | 00:00:00 | 00:00:00 | |
| PG1ADW-2 | 2026-09-05 12:49:29 | 45.76522 | 17.05812 | 313° | 7km/h | 28423m | 5.9m/s | -45.3°C | 2.9% | 0hPa | 2.6V | 00:00:00 | 00:00:00 | 00:00:00 | |
| 9A1FER-3 | 2026-09-05 12:49:24 | 45.76523 | 17.05812 | 110° | 9km/h | 28393m | 4.8m/s | -45.2°C | 2.8% | 0hPa | 2.6V | 00:00:00 | 01:45:13 | 00:00:00 | |
| PETON7-10 | 2026-09-05 12:49:22 | 45.76525 | 17.05808 | 146° | 11km/h | 28382m | 6.9m/s | -45.5°C | 2.9% | 0hPa | 2.6V | 00:00:00 | 00:00:00 | 00:00:00 | |
| OE5DXL-15 | 2026-09-05 12:49:12 | 45.76544 | 17.05798 | 122° | 22km/h | 28324m | 7.0m/s | -45.6°C | 2.9% | 0hPa | 2.6V | 00:00:00 | 00:00:00 | 00:00:00 | |
| 9A1FER-3 | 2026-09-05 12:49:09 | 45.76549 | 17.05789 | 133° | 20km/h | 28306m | 6.8m/s | -45.4°C | 2.8% | 0hPa | 2.6V | 00:00:00 | 01:44:58 | 00:00:00 | |
| PETON7-10 | 2026-09-05 12:49:07 | 45.76554 | 17.05781 | 133° | 20km/h | 28294m | 6.4m/s | -45.3°C | 2.9% | 0hPa | 2.6V | 00:00:00 | 01:44:56 | 00:00:00 | |
| 9A1FER-3 | 2026-09-05 12:48:54 | 45.76590 | 17.05699 | 120° | 24km/h | 28216m | 7.0m/s | -46.2°C | 3.0% | 0hPa | 2.6V | 00:00:00 | 01:44:43 | 08:30:00 | |
| PETON7-10 | 2026-09-05 12:48:52 | 45.76595 | 17.05683 | 115° | 24km/h | 28204m | 5.1m/s | -46.1°C | 3.0% | 0hPa | 2.7V | 00:00:00 | 00:00:00 | 00:00:00 | |
| LZ4TU-5 | 2026-09-05 12:48:50 | 45.76599 | 17.05674 | 119° | 29km/h | 28198m | 6.8m/s | -46.2°C | 0% | 0hPa | 2.6V | 00:00:00 | 00:00:00 | 00:00:00 | |
| LZ4TU-5 | 2026-09-05 12:48:46 | 45.76615 | 17.05635 | 117° | 27km/h | 28174m | 6.6m/s | 0°C | 0% | 0hPa | 2.6V | 00:00:00 | 00:00:00 | 00:00:00 | |
| OE5DXL-15 | 2026-09-05 12:48:42 | 45.76627 | 17.05605 | 135° | 16km/h | 28145m | 5.8m/s | -46.5°C | 3.0% | 0hPa | 2.6V | 00:00:00 | 00:00:00 | 00:00:00 | |
| 9A1FER-3 | 2026-09-05 12:48:39 | 45.76635 | 17.05588 | 116° | 16km/h | 28127m | 5.6m/s | -46.5°C | 3.0% | 0hPa | 2.6V | 00:00:00 | 01:44:28 | 00:00:00 | |
| PETON7-10 | 2026-09-05 12:48:37 | 45.76640 | 17.05575 | 127° | 16km/h | 28114m | 6.6m/s | -46.6°C | 3.0% | 0hPa | 2.6V | 00:00:00 | 00:00:00 | 00:00:00 | |
| PG1ADW-2 | 2026-09-05 12:48:29 | 45.76669 | 17.05551 | 186° | 16km/h | 28068m | 5.5m/s | -46.5°C | 3.1% | 0hPa | 2.6V | 00:00:00 | 00:00:00 | 00:00:00 | |
| 9A1FER-3 | 2026-09-05 12:48:24 | 45.76688 | 17.05551 | 175° | 18km/h | 28037m | 5.8m/s | -46.9°C | 3.1% | 0hPa | 2.6V | 00:00:00 | 01:44:13 | 00:00:00 | |
| PETON7-10 | 2026-09-05 12:48:22 | 45.76696 | 17.05549 | 164° | 22km/h | 28027m | 5.0m/s | -46.9°C | 3.1% | 0hPa | 2.6V | 00:00:00 | 01:44:11 | 00:00:00 | |
| OE5DXL-15 | 2026-09-05 12:48:12 | 45.76728 | 17.05516 | 140° | 22km/h | 27967m | 6.9m/s | -46.8°C | 3.2% | 0hPa | 2.6V | 00:00:00 | 00:00:00 | 00:00:00 | |
| 9A1FER-3 | 2026-09-05 12:48:09 | 45.76744 | 17.05499 | 140° | 18km/h | 27950m | 6.8m/s | -46.8°C | 3.1% | 0hPa | 2.7V | 00:00:00 | 01:43:58 | 00:00:00 | |
| PETON7-10 | 2026-09-05 12:48:04 | 45.76758 | 17.05476 | 129° | 20km/h | 27922m | 4.3m/s | -47.0°C | 3.1% | 0hPa | 2.7V | 00:00:00 | 00:00:00 | 08:30:00 | |
| 9A1FER-3 | 2026-09-05 12:47:54 | 45.76782 | 17.05414 | 128° | 27km/h | 27866m | 6.2m/s | -47.3°C | 3.3% | 0hPa | 2.6V | 00:00:00 | 01:43:43 | 00:00:00 | |
| PETON7-10 | 2026-09-05 12:47:49 | 45.76795 | 17.05385 | 105° | 22km/h | 27837m | 5.5m/s | -47.1°C | 3.1% | 0hPa | 2.6V | 00:00:00 | 00:00:00 | 00:00:00 | |
| OE5DXL-15 | 2026-09-05 12:47:42 | 45.76817 | 17.05322 | 123° | 29km/h | 27797m | 5.4m/s | -47.1°C | 3.2% | 0hPa | 2.6V | 00:00:00 | 00:00:00 | 00:00:00 | |
| 9A1FER-3 | 2026-09-05 12:47:39 | 45.76834 | 17.05291 | 135° | 27km/h | 27780m | 5.3m/s | -47.1°C | 3.2% | 0hPa | 2.6V | 00:00:00 | 01:43:28 | 00:00:00 | |
| PETON7-10 | 2026-09-05 12:47:34 | 45.76851 | 17.05256 | 114° | 29km/h | 27752m | 6.2m/s | -47.0°C | 3.1% | 0hPa | 2.6V | 00:00:00 | 01:43:23 | 00:00:00 | |
| PG1ADW-2 | 2026-09-05 12:47:29 | 45.76864 | 17.05215 | 115° | 27km/h | 27723m | 5.0m/s | -47.0°C | 3.1% | 0hPa | 2.6V | 00:00:00 | 00:00:00 | 00:00:00 | |
| 9A1FER-3 | 2026-09-05 12:47:24 | 45.76888 | 17.05167 | 128° | 26km/h | 27695m | 6.2m/s | -47.1°C | 3.2% | 0hPa | 2.6V | 00:00:00 | 01:43:13 | 00:00:00 | |
| PETON7-10 | 2026-09-05 12:47:14 | 45.76928 | 17.05083 | 122° | 24km/h | 27638m | 6.9m/s | -47.3°C | 3.1% | 0hPa | 2.6V | 00:00:00 | 00:00:00 | 00:00:00 | |
| OE5DXL-15 | 2026-09-05 12:47:12 | 45.76935 | 17.05070 | 127° | 29km/h | 27626m | 5.6m/s | 0°C | 0% | 0hPa | 2.6V | 00:00:00 | 01:43:01 | 00:00:00 | |
| PG1ADW-2 | 2026-09-05 12:47:09 | 45.76942 | 17.05050 | 113° | 29km/h | 27608m | 4.5m/s | -47.5°C | 3.2% | 0hPa | 2.6V | 00:00:00 | 00:00:00 | 08:30:00 | |
| PETON7-10 | 2026-09-05 12:46:59 | 45.76983 | 17.04971 | 134° | 31km/h | 27549m | 5.8m/s | -47.4°C | 3.2% | 0hPa | 2.6V | 00:00:00 | 00:00:00 | 00:00:00 | |
| 9A1FER-3 | 2026-09-05 12:46:54 | 45.77007 | 17.04927 | 125° | 31km/h | 27518m | 5.0m/s | -47.7°C | 3.2% | 0hPa | 2.6V | 00:00:00 | 01:42:43 | 00:00:00 | |
| PG1ADW-2 | 2026-09-05 12:46:49 | 45.77019 | 17.04874 | 101° | 31km/h | 27490m | 6.0m/s | -47.6°C | 3.2% | 0hPa | 2.6V | 00:00:00 | 00:00:00 | 00:00:00 | |
| PETON7-10 | 2026-09-05 12:46:42 | 45.77042 | 17.04803 | 123° | 33km/h | 27447m | 7.3m/s | -47.6°C | 3.3% | 0hPa | 2.6V | 00:00:00 | 01:42:31 | 00:00:00 | |
| 9A1FER-3 | 2026-09-05 12:46:39 | 45.77055 | 17.04771 | 110° | 31km/h | 27430m | 6.8m/s | -47.6°C | 3.3% | 0hPa | 2.6V | 00:00:00 | 01:42:28 | 08:30:00 | |
| PG1ADW-2 | 2026-09-05 12:46:29 | 45.77063 | 17.04662 | 120° | 29km/h | 27370m | 7.5m/s | -47.7°C | 3.2% | 0hPa | 2.7V | 00:00:00 | 01:42:18 | 00:00:00 | |
| PETON7-10 | 2026-09-05 12:46:27 | 45.77073 | 17.04642 | 126° | 27km/h | 27358m | 5.2m/s | -47.4°C | 3.2% | 0hPa | 2.7V | 00:00:00 | 00:00:00 | 00:00:00 | |
| 9A1FER-3 | 2026-09-05 12:46:24 | 45.77082 | 17.04613 | 102° | 27km/h | 27340m | 5.2m/s | -47.5°C | 3.3% | 0hPa | 2.7V | 00:00:00 | 01:42:13 | 00:00:00 | |
| PETON7-10 | 2026-09-05 12:46:10 | 45.77097 | 17.04478 | 112° | 22km/h | 27255m | 7.3m/s | -47.4°C | 3.2% | 0hPa | 2.7V | 00:00:00 | 00:00:00 | 00:00:00 | |
| 9A1FER-3 | 2026-09-05 12:46:09 | 45.77099 | 17.04470 | 113° | 22km/h | 27248m | 5.6m/s | -47.4°C | 3.2% | 0hPa | 2.7V | 00:00:00 | 01:41:58 | 00:00:00 | |
| 9A1FER-3 | 2026-09-05 12:45:54 | 45.77115 | 17.04352 | 102° | 18km/h | 27155m | 5.4m/s | -47.9°C | 3.3% | 0hPa | 2.7V | 00:00:00 | 01:41:43 | 00:00:00 | |
| PG1ADW-2 | 2026-09-05 12:45:49 | 45.77119 | 17.04323 | 90° | 16km/h | 27124m | 7.5m/s | -47.9°C | 3.3% | 0hPa | 2.7V | 00:00:00 | 00:00:00 | 00:00:00 | |
| 9A1FER-3 | 2026-09-05 12:45:39 | 45.77117 | 17.04257 | 107° | 13km/h | 27063m | 7.4m/s | -47.9°C | 3.3% | 0hPa | 2.7V | 00:00:00 | 01:41:28 | 00:00:00 | |
| LZ4TU-5 | 2026-09-05 12:45:32 | 45.77119 | 17.04225 | 91° | 15km/h | 27026m | 7.0m/s | 0°C | 0% | 0hPa | 2.7V | 00:00:00 | 00:00:00 | 00:00:00 | |
| PG1ADW-2 | 2026-09-05 12:45:29 | 45.77116 | 17.04209 | 60° | 13km/h | 27001m | 5.6m/s | -47.8°C | 3.3% | 0hPa | 2.7V | 00:00:00 | 00:00:00 | 00:00:00 | |
| LZ4TU-5 | 2026-09-05 12:45:28 | 45.77115 | 17.04205 | 68° | 9km/h | 26995m | 5.6m/s | 0°C | 0% | 0hPa | 2.7V | 00:00:00 | 00:00:00 | 00:00:00 | |
| 9A1FER-3 | 2026-09-05 12:45:24 | 45.77114 | 17.04189 | 87° | 15km/h | 26971m | 7.3m/s | -47.9°C | 3.4% | 0hPa | 2.7V | 00:00:00 | 01:41:13 | 00:00:00 | |
| PETON7-10 | 2026-09-05 12:45:23 | 45.77114 | 17.04183 | 81° | 13km/h | 26964m | 6.0m/s | -47.8°C | 3.4% | 0hPa | 2.7V | 00:00:00 | 00:00:00 | 00:00:00 | |
| 9A1FER-3 | 2026-09-05 12:45:09 | 45.77099 | 17.04118 | 75° | 13km/h | 26876m | 7.1m/s | -47.8°C | 3.3% | 0hPa | 2.7V | 00:00:00 | 01:40:58 | 00:00:00 | |
| PETON7-10 | 2026-09-05 12:45:05 | 45.77095 | 17.04097 | 57° | 11km/h | 26851m | 4.9m/s | -47.7°C | 3.3% | 0hPa | 2.6V | 00:00:00 | 01:40:54 | 00:00:00 | |
| 9A1FER-3 | 2026-09-05 12:44:54 | 45.77066 | 17.04082 | 40° | 7km/h | 26785m | 6.7m/s | -47.7°C | 3.3% | 0hPa | 2.6V | 00:00:00 | 01:40:43 | 00:00:00 | |
| PG1ADW-2 | 2026-09-05 12:44:50 | 45.77057 | 17.04076 | 315° | 5km/h | 26755m | 4.9m/s | -47.6°C | 3.3% | 0hPa | 2.6V | 00:00:00 | 00:00:00 | 00:00:00 | |
| 9A1FER-3 | 2026-09-05 12:44:39 | 45.77048 | 17.04076 | 87° | 5km/h | 26693m | 6.7m/s | -47.4°C | 3.3% | 0hPa | 2.6V | 00:00:00 | 01:40:28 | 00:00:00 | |
| PETON7-10 | 2026-09-05 12:44:35 | 45.77050 | 17.04068 | 102° | 4km/h | 26669m | 6.9m/s | -47.3°C | 3.2% | 0hPa | 2.6V | 00:00:00 | 00:00:00 | 00:00:00 | |
| PG1ADW-2 | 2026-09-05 12:44:30 | 45.77052 | 17.04070 | 256° | 9km/h | 26633m | 6.2m/s | -47.2°C | 3.3% | 0hPa | 2.6V | 00:00:00 | 00:00:00 | 00:00:00 | |
| 9A1FER-3 | 2026-09-05 12:44:24 | 45.77055 | 17.04069 | 169° | 9km/h | 26604m | 5.7m/s | -47.0°C | 3.2% | 0hPa | 2.6V | 00:00:00 | 01:40:13 | 08:30:00 | |
| PETON7-10 | 2026-09-05 12:44:20 | 45.77058 | 17.04068 | 201° | 13km/h | 26579m | 5.5m/s | -46.9°C | 3.2% | 0hPa | 2.6V | 00:00:00 | 01:40:09 | 00:00:00 | |
| PG1ADW-2 | 2026-09-05 12:44:09 | 45.77091 | 17.04055 | 136° | 18km/h | 26514m | 6.4m/s | -46.7°C | 3.1% | 0hPa | 2.6V | 00:00:00 | 00:00:00 | 08:30:00 | |
| PETON7-10 | 2026-09-05 12:44:05 | 45.77101 | 17.04042 | 169° | 20km/h | 26490m | 5.3m/s | -46.7°C | 3.1% | 0hPa | 2.7V | 00:00:00 | 00:00:00 | 00:00:00 | |
| 9A1FER-3 | 2026-09-05 12:43:54 | 45.77148 | 17.04001 | 130° | 22km/h | 26425m | 5.6m/s | -46.9°C | 3.2% | 0hPa | 2.6V | 00:00:00 | 01:39:43 | 00:00:00 | |
| PETON7-10 | 2026-09-05 12:43:49 | 45.77163 | 17.03980 | 127° | 24km/h | 26393m | 5.8m/s | -47.1°C | 3.2% | 0hPa | 2.6V | 00:00:00 | 00:00:00 | 00:00:00 | |
| 9A1FER-3 | 2026-09-05 12:43:39 | 45.77193 | 17.03905 | 103° | 26km/h | 26334m | 5.4m/s | -46.9°C | 3.2% | 0hPa | 2.6V | 00:00:00 | 01:39:28 | 00:00:00 | |
| PETON7-10 | 2026-09-05 12:43:34 | 45.77193 | 17.03862 | 85° | 27km/h | 26303m | 5.0m/s | -47.0°C | 3.1% | 0hPa | 2.7V | 00:00:00 | 01:39:23 | 00:00:00 | |
| PG1ADW-2 | 2026-09-05 12:43:29 | 45.77192 | 17.03815 | 94° | 27km/h | 26273m | 5.8m/s | -47.0°C | 3.2% | 0hPa | 2.7V | 00:00:00 | 00:00:00 | 00:00:00 | |
| 9A1FER-3 | 2026-09-05 12:43:24 | 45.77189 | 17.03770 | 75° | 27km/h | 26245m | 5.1m/s | -47.1°C | 3.2% | 0hPa | 2.7V | 00:00:00 | 01:39:13 | 00:00:00 | |
| 9A1FER-3 | 2026-09-05 12:43:09 | 45.77148 | 17.03634 | 55° | 22km/h | 26157m | 5.8m/s | -47.6°C | 3.2% | 0hPa | 2.7V | 00:00:00 | 01:38:58 | 00:00:00 | |
| PETON7-10 | 2026-09-05 12:42:57 | 45.77104 | 17.03564 | 32° | 18km/h | 26087m | 5.7m/s | -47.8°C | 3.3% | 0hPa | 2.7V | 00:00:00 | 00:00:00 | 00:00:00 | |
| 9A1FER-3 | 2026-09-05 12:42:54 | 45.77093 | 17.03552 | 43° | 15km/h | 26070m | 5.2m/s | -47.7°C | 3.3% | 0hPa | 2.7V | 00:00:00 | 01:38:43 | 00:00:00 | |
| PG1ADW-2 | 2026-09-05 12:42:49 | 45.77076 | 17.03540 | 18° | 13km/h | 26042m | 6.8m/s | -47.9°C | 3.2% | 0hPa | 2.6V | 00:00:00 | 00:00:00 | 00:00:00 | |
| 9A1FER-3 | 2026-09-05 12:42:39 | 45.77053 | 17.03505 | 65° | 15km/h | 25981m | 5.2m/s | -48.1°C | 3.3% | 0hPa | 2.6V | 00:00:00 | 01:38:28 | 00:00:00 | |
| PG1ADW-2 | 2026-09-05 12:42:29 | 45.77039 | 17.03473 | 93° | 18km/h | 25923m | 5.8m/s | -48.8°C | 3.4% | 0hPa | 2.6V | 00:00:00 | 01:38:18 | 00:00:00 | |
| 9A1FER-3 | 2026-09-05 12:42:24 | 45.77041 | 17.03436 | 88° | 18km/h | 25894m | 4.3m/s | -48.8°C | 3.4% | 0hPa | 2.6V | 00:00:00 | 01:38:13 | 00:00:00 | |
| PG1ADW-2 | 2026-09-05 12:42:09 | 45.77027 | 17.03342 | 60° | 26km/h | 25808m | 5.1m/s | -48.6°C | 3.4% | 0hPa | 2.6V | 00:00:00 | 00:00:00 | 00:00:00 | |
| 9A1FER-3 | 2026-09-05 12:41:54 | 45.76975 | 17.03237 | 49° | 31km/h | 25721m | 4.8m/s | -48.4°C | 3.4% | 0hPa | 2.6V | 00:00:00 | 01:37:43 | 00:00:00 | |
| PG1ADW-2 | 2026-09-05 12:41:49 | 45.76946 | 17.03196 | 56° | 31km/h | 25692m | 5.7m/s | -48.4°C | 3.4% | 0hPa | 2.6V | 00:00:00 | 00:00:00 | 00:00:00 | |
| 9A1FER-3 | 2026-09-05 12:41:39 | 45.76907 | 17.03108 | 34° | 31km/h | 25635m | 4.6m/s | -48.3°C | 3.3% | 0hPa | 2.6V | 00:00:00 | 01:37:28 | 00:00:00 | |
| PETON7-10 | 2026-09-05 12:41:37 | 45.76890 | 17.03092 | 37° | 31km/h | 25624m | 6.2m/s | -48.4°C | 3.3% | 0hPa | 2.6V | 00:00:00 | 00:00:00 | 00:00:00 | |
| PG1ADW-2 | 2026-09-05 12:41:28 | 45.76852 | 17.03018 | 61° | 26km/h | 25574m | 6.5m/s | -48.2°C | 3.3% | 0hPa | 2.6V | 00:00:00 | 00:00:00 | 00:00:00 | |
| 9A1FER-3 | 2026-09-05 12:41:24 | 45.76830 | 17.02986 | 40° | 24km/h | 25551m | 5.2m/s | -48.4°C | 3.2% | 0hPa | 2.6V | 00:00:00 | 01:37:13 | 00:00:00 | |
| 9A1FER-3 | 2026-09-05 12:41:09 | 45.76764 | 17.02899 | 42° | 20km/h | 25469m | 6.8m/s | -49.5°C | 3.4% | 0hPa | 2.6V | 00:00:00 | 01:36:58 | 00:00:00 | |
| PG1ADW-2 | 2026-09-05 12:41:08 | 45.76758 | 17.02891 | 37° | 20km/h | 25463m | 5.2m/s | -49.6°C | 3.4% | 0hPa | 2.6V | 00:00:00 | 01:36:57 | 08:30:00 | |
| PETON7-10 | 2026-09-05 12:41:03 | 45.76732 | 17.02862 | 32° | 16km/h | 25437m | 6.7m/s | -49.9°C | 3.6% | 0hPa | 2.6V | 00:00:00 | 00:00:00 | 00:00:00 | |
| 9A1FER-3 | 2026-09-05 12:40:54 | 45.76704 | 17.02836 | 45° | 20km/h | 25386m | 6.0m/s | -50.1°C | 3.6% | 0hPa | 2.6V | 00:00:00 | 01:36:43 | 00:00:00 | |
| PETON7-10 | 2026-09-05 12:40:48 | 45.76680 | 17.02803 | 50° | 18km/h | 25354m | 5.4m/s | -50.2°C | 3.7% | 0hPa | 2.6V | 00:00:00 | 01:36:37 | 00:00:00 | |
| 9A1FER-3 | 2026-09-05 12:40:39 | 45.76645 | 17.02770 | 23° | 15km/h | 25304m | 5.2m/s | -50.2°C | 3.6% | 0hPa | 2.6V | 00:00:00 | 01:36:28 | 00:00:00 | |
| PETON7-10 | 2026-09-05 12:40:33 | 45.76622 | 17.02747 | 40° | 13km/h | 25273m | 5.9m/s | -50.3°C | 3.6% | 0hPa | 2.6V | 00:00:00 | 00:00:00 | 00:00:00 | |
| PG1ADW-2 | 2026-09-05 12:40:28 | 45.76610 | 17.02731 | 57° | 16km/h | 25247m | 4.9m/s | -50.4°C | 3.6% | 0hPa | 2.6V | 00:00:00 | 00:00:00 | 00:00:00 | |
| 9A1FER-3 | 2026-09-05 12:40:24 | 45.76602 | 17.02719 | 54° | 18km/h | 25226m | 6.4m/s | -50.6°C | 3.6% | 0hPa | 2.6V | 00:00:00 | 01:36:13 | 00:00:00 | |
| PETON7-10 | 2026-09-05 12:40:18 | 45.76588 | 17.02692 | 51° | 18km/h | 25193m | 6.6m/s | -50.9°C | 3.6% | 0hPa | 2.6V | 00:00:00 | 00:00:00 | 00:00:00 | |
| 9A1FER-3 | 2026-09-05 12:40:09 | 45.76566 | 17.02637 | 75° | 20km/h | 25145m | 4.4m/s | -51.9°C | 3.9% | 0hPa | 2.6V | 00:00:00 | 01:35:58 | 00:00:00 | |
| PG1ADW-2 | 2026-09-05 12:40:08 | 45.76565 | 17.02631 | 69° | 18km/h | 25140m | 6.5m/s | -52.0°C | 3.9% | 0hPa | 2.6V | 00:00:00 | 00:00:00 | 00:00:00 | |
| PETON7-10 | 2026-09-05 12:39:48 | 45.76499 | 17.02542 | 17° | 15km/h | 25029m | 5.8m/s | -52.2°C | 4.0% | 0hPa | 2.6V | 00:00:00 | 00:00:00 | 08:30:00 | |
| 9A1FER-3 | 2026-09-05 12:39:39 | 45.76461 | 17.02527 | 354° | 9km/h | 24978m | 5.8m/s | -52.4°C | 4.1% | 0hPa | 2.7V | 00:00:00 | 01:35:28 | 00:00:00 | |
| PETON7-10 | 2026-09-05 12:39:33 | 45.76447 | 17.02519 | 38° | 7km/h | 24945m | 5.1m/s | -52.2°C | 4.0% | 0hPa | 2.7V | 00:00:00 | 00:00:00 | 00:00:00 | |
| PG1ADW-2 | 2026-09-05 12:39:28 | 45.76438 | 17.02506 | 4° | 7km/h | 24916m | 5.7m/s | -52.2°C | 3.8% | 0hPa | 2.7V | 00:00:00 | 00:00:00 | 00:00:00 | |
| 9A1FER-3 | 2026-09-05 12:39:24 | 45.76436 | 17.02511 | 304° | 7km/h | 24895m | 4.7m/s | -52.3°C | 3.9% | 0hPa | 2.7V | 00:00:00 | 01:35:13 | 00:00:00 | |
| 9A1FER-3 | 2026-09-05 12:39:09 | 45.76438 | 17.02488 | 183° | 13km/h | 24810m | 6.0m/s | -53.0°C | 4.1% | 0hPa | 2.7V | 00:00:00 | 01:34:58 | 00:00:00 | |
| PG1ADW-2 | 2026-09-05 12:39:08 | 45.76440 | 17.02487 | 155° | 13km/h | 24803m | 6.6m/s | -53.1°C | 4.1% | 0hPa | 2.7V | 00:00:00 | 00:00:00 | 00:00:00 | |
| PETON7-10 | 2026-09-05 12:39:03 | 45.76445 | 17.02470 | 102° | 13km/h | 24774m | 5.8m/s | -52.9°C | 4.1% | 0hPa | 2.7V | 00:00:00 | 00:00:00 | 00:00:00 | |
| 9A1FER-3 | 2026-09-05 12:38:54 | 45.76443 | 17.02427 | 69° | 15km/h | 24724m | 6.8m/s | -53.3°C | 4.2% | 0hPa | 2.7V | 00:00:00 | 01:34:43 | 00:00:00 | |
| PETON7-10 | 2026-09-05 12:38:48 | 45.76441 | 17.02401 | 126° | 16km/h | 24688m | 5.3m/s | -53.3°C | 4.2% | 0hPa | 2.7V | 00:00:00 | 00:00:00 | 00:00:00 | |
| PETON7-10 | 2026-09-05 12:38:32 | 45.76439 | 17.02305 | 115° | 16km/h | 24597m | 6.5m/s | -53.4°C | 4.2% | 0hPa | 2.7V | 00:00:00 | 01:34:21 | 00:00:00 | |
| PG1ADW-2 | 2026-09-05 12:38:28 | 45.76442 | 17.02282 | 88° | 18km/h | 24575m | 4.9m/s | -53.3°C | 4.2% | 0hPa | 2.7V | 00:00:00 | 01:34:17 | 00:00:00 | |
| 9A1FER-3 | 2026-09-05 12:38:24 | 45.76437 | 17.02253 | 80° | 18km/h | 24551m | 6.8m/s | -53.2°C | 4.2% | 0hPa | 2.7V | 00:00:00 | 01:34:13 | 00:00:00 | |
| 9A1FER-3 | 2026-09-05 12:38:09 | 45.76438 | 17.02154 | 81° | 22km/h | 24464m | 6.3m/s | -53.5°C | 4.2% | 0hPa | 2.6V | 00:00:00 | 01:33:58 | 00:00:00 | |
| PG1ADW-2 | 2026-09-05 12:38:08 | 45.76437 | 17.02146 | 85° | 22km/h | 24458m | 4.6m/s | -53.5°C | 4.3% | 0hPa | 2.6V | 00:00:00 | 00:00:00 | 08:30:00 | |
| 9A1FER-3 | 2026-09-05 12:37:54 | 45.76415 | 17.02042 | 66° | 24km/h | 24376m | 4.9m/s | -53.5°C | 4.1% | 0hPa | 2.7V | 00:00:00 | 01:33:43 | 00:00:00 | |
| PG1ADW-2 | 2026-09-05 12:37:48 | 45.76398 | 17.02001 | 44° | 24km/h | 24342m | 5.0m/s | -53.7°C | 4.2% | 0hPa | 2.7V | 00:00:00 | 00:00:00 | 00:00:00 | |
| 9A1FER-3 | 2026-09-05 12:37:39 | 45.76350 | 17.01965 | 34° | 24km/h | 24290m | 6.5m/s | -54.1°C | 4.4% | 0hPa | 2.7V | 00:00:00 | 01:33:28 | 08:30:00 | |
| PG1ADW-2 | 2026-09-05 12:37:28 | 45.76288 | 17.01928 | 357° | 20km/h | 24227m | 5.6m/s | -53.9°C | 4.4% | 0hPa | 2.7V | 00:00:00 | 00:00:00 | 00:00:00 | |
| 9A1FER-3 | 2026-09-05 12:37:24 | 45.76267 | 17.01928 | 23° | 20km/h | 24205m | 5.9m/s | -54.0°C | 4.4% | 0hPa | 2.7V | 00:00:00 | 01:33:13 | 00:00:00 | |
| 9A1FER-3 | 2026-09-05 12:37:09 | 45.76206 | 17.01871 | 45° | 20km/h | 24119m | 6.3m/s | -53.7°C | 4.5% | 0hPa | 2.7V | 00:00:00 | 01:32:58 | 00:00:00 | |
| PG1ADW-2 | 2026-09-05 12:37:08 | 45.76203 | 17.01866 | 47° | 22km/h | 24114m | 4.7m/s | -53.7°C | 4.4% | 0hPa | 2.7V | 00:00:00 | 01:32:57 | 00:00:00 | |
| 9A1FER-3 | 2026-09-05 12:36:54 | 45.76139 | 17.01813 | 33° | 24km/h | 24034m | 5.3m/s | -53.5°C | 4.4% | 0hPa | 2.6V | 00:00:00 | 01:32:43 | 00:00:00 | |
| PG1ADW-2 | 2026-09-05 12:36:48 | 45.76112 | 17.01778 | 38° | 24km/h | 24000m | 5.0m/s | -53.6°C | 4.1% | 0hPa | 2.6V | 00:00:00 | 00:00:00 | 00:00:00 | |
| 9A1FER-3 | 2026-09-05 12:36:39 | 45.76070 | 17.01738 | 47° | 24km/h | 23948m | 5.9m/s | -53.6°C | 4.3% | 0hPa | 2.6V | 00:00:00 | 01:32:28 | 00:00:00 | |
| PG1ADW-2 | 2026-09-05 12:36:28 | 45.76016 | 17.01685 | 6° | 18km/h | 23883m | 5.7m/s | -54.1°C | 4.4% | 0hPa | 2.6V | 00:00:00 | 00:00:00 | 00:00:00 | |
| 9A1FER-3 | 2026-09-05 12:36:24 | 45.75998 | 17.01680 | 35° | 18km/h | 23859m | 5.7m/s | -53.6°C | 4.4% | 0hPa | 2.6V | 00:00:00 | 01:32:13 | 00:00:00 | |
| 9A1FER-3 | 2026-09-05 12:36:09 | 45.75944 | 17.01622 | 50° | 13km/h | 23774m | 7.1m/s | -53.8°C | 4.4% | 0hPa | 2.6V | 00:00:00 | 01:31:58 | 00:00:00 | |
| PG1ADW-2 | 2026-09-05 12:36:08 | 45.75943 | 17.01619 | 59° | 13km/h | 23768m | 5.0m/s | -53.8°C | 4.4% | 0hPa | 2.6V | 00:00:00 | 00:00:00 | 00:00:00 | |
| 9A1FER-3 | 2026-09-05 12:35:54 | 45.75910 | 17.01576 | 54° | 13km/h | 23688m | 5.1m/s | -53.7°C | 4.3% | 0hPa | 2.7V | 00:00:00 | 01:31:43 | 00:00:00 | |
| PG1ADW-2 | 2026-09-05 12:35:48 | 45.75905 | 17.01553 | 65° | 16km/h | 23653m | 4.6m/s | -53.8°C | 4.4% | 0hPa | 2.7V | 00:00:00 | 01:31:37 | 00:00:00 | |
| 9A1FER-3 | 2026-09-05 12:35:39 | 45.75904 | 17.01507 | 108° | 18km/h | 23600m | 5.7m/s | -53.7°C | 4.2% | 0hPa | 2.7V | 00:00:00 | 01:31:28 | 00:00:00 | |
| PETON7-10 | 2026-09-05 12:35:30 | 45.75924 | 17.01459 | 115° | 26km/h | 23551m | 5.4m/s | -53.9°C | 4.4% | 0hPa | 2.7V | 00:00:00 | 00:00:00 | 00:00:00 | |
| PG1ADW-2 | 2026-09-05 12:35:28 | 45.75928 | 17.01447 | 114° | 24km/h | 23539m | 5.4m/s | -54.1°C | 4.6% | 0hPa | 2.6V | 00:00:00 | 00:00:00 | 00:00:00 | |
| 9A1FER-3 | 2026-09-05 12:35:09 | 45.75968 | 17.01293 | 88° | 26km/h | 23436m | 4.6m/s | -53.4°C | 4.3% | 0hPa | 2.6V | 00:00:00 | 01:30:58 | 00:00:00 | |
| PG1ADW-2 | 2026-09-05 12:35:08 | 45.75968 | 17.01285 | 102° | 24km/h | 23431m | 5.1m/s | -53.4°C | 4.3% | 0hPa | 2.6V | 00:00:00 | 00:00:00 | 08:30:00 | |
| 9A1FER-3 | 2026-09-05 12:34:54 | 45.75978 | 17.01168 | 77° | 24km/h | 23354m | 5.0m/s | -53.2°C | 4.3% | 0hPa | 2.7V | 00:00:00 | 01:30:43 | 00:00:00 | |
| PETON7-10 | 2026-09-05 12:34:39 | 45.75962 | 17.01041 | 77° | 22km/h | 23272m | 4.9m/s | -53.1°C | 4.4% | 0hPa | 2.7V | 00:00:00 | 00:00:00 | 00:00:00 | |
| PG1ADW-2 | 2026-09-05 12:34:28 | 45.75933 | 17.00970 | 63° | 24km/h | 23209m | 5.2m/s | -52.5°C | 4.1% | 0hPa | 2.7V | 00:00:00 | 01:30:17 | 00:00:00 | |
| 9A1FER-3 | 2026-09-05 12:34:24 | 45.75921 | 17.00941 | 57° | 24km/h | 23187m | 7.0m/s | -52.4°C | 4.1% | 0hPa | 2.7V | 00:00:00 | 01:30:13 | 00:00:00 | |
| PETON7-10 | 2026-09-05 12:34:22 | 45.75913 | 17.00926 | 52° | 26km/h | 23176m | 4.6m/s | -52.3°C | 4.1% | 0hPa | 2.7V | 00:00:00 | 01:30:11 | 00:00:00 | |
| 9A1FER-3 | 2026-09-05 12:34:09 | 45.75856 | 17.00845 | 39° | 24km/h | 23102m | 4.8m/s | -52.2°C | 4.1% | 0hPa | 2.7V | 00:00:00 | 01:29:58 | 00:00:00 | |
| PG1ADW-2 | 2026-09-05 12:34:08 | 45.75851 | 17.00839 | 40° | 22km/h | 23097m | 5.6m/s | -52.1°C | 4.0% | 0hPa | 2.7V | 00:00:00 | 00:00:00 | 00:00:00 | |
| PETON7-10 | 2026-09-05 12:34:03 | 45.75824 | 17.00809 | 32° | 20km/h | 23068m | 4.7m/s | -51.9°C | 4.0% | 0hPa | 2.7V | 00:00:00 | 00:00:00 | 08:30:00 | |
| 9A1FER-3 | 2026-09-05 12:33:54 | 45.75785 | 17.00767 | 39° | 20km/h | 23018m | 6.4m/s | -51.9°C | 4.0% | 0hPa | 2.6V | 00:00:00 | 01:29:43 | 00:00:00 | |
| PG1ADW-2 | 2026-09-05 12:33:48 | 45.75759 | 17.00745 | 3° | 26km/h | 22983m | 5.4m/s | -51.9°C | 4.0% | 0hPa | 2.6V | 00:00:00 | 00:00:00 | 00:00:00 | |
| PETON7-10 | 2026-09-05 12:33:47 | 45.75756 | 17.00745 | 357° | 26km/h | 22978m | 4.8m/s | -51.9°C | 4.0% | 0hPa | 2.6V | 00:00:00 | 00:00:00 | 00:00:00 | |
| 9A1FER-3 | 2026-09-05 12:33:39 | 45.75715 | 17.00730 | 23° | 29km/h | 22935m | 4.4m/s | -51.9°C | 4.1% | 0hPa | 2.6V | 00:00:00 | 01:29:28 | 00:00:00 | |
| PG1ADW-2 | 2026-09-05 12:33:28 | 45.75632 | 17.00722 | 3° | 26km/h | 22876m | 5.3m/s | -51.7°C | 4.1% | 0hPa | 2.6V | 00:00:00 | 00:00:00 | 00:00:00 | |
| 9A1FER-3 | 2026-09-05 12:33:24 | 45.75606 | 17.00721 | 9° | 26km/h | 22853m | 5.9m/s | -51.4°C | 4.0% | 0hPa | 2.6V | 00:00:00 | 01:29:13 | 00:00:00 | |
| 9A1FER-3 | 2026-09-05 12:33:09 | 45.75509 | 17.00718 | 359° | 24km/h | 22774m | 5.0m/s | -51.0°C | 3.7% | 0hPa | 2.6V | 00:00:00 | 01:28:58 | 08:30:00 | |
| PG1ADW-2 | 2026-09-05 12:33:08 | 45.75504 | 17.00719 | 356° | 24km/h | 22769m | 5.9m/s | -51.1°C | 3.8% | 0hPa | 2.6V | 00:00:00 | 01:28:57 | 00:00:00 | |
| PETON7-10 | 2026-09-05 12:33:06 | 45.75494 | 17.00721 | 343° | 24km/h | 22758m | 4.4m/s | -50.9°C | 3.7% | 0hPa | 2.7V | 00:00:00 | 00:00:00 | 00:00:00 | |
| 9A1FER-3 | 2026-09-05 12:32:54 | 45.75425 | 17.00743 | 360° | 20km/h | 22695m | 6.1m/s | -51.4°C | 3.6% | 0hPa | 2.6V | 00:00:00 | 01:28:43 | 00:00:00 | |
| PETON7-10 | 2026-09-05 12:32:49 | 45.75397 | 17.00755 | 327° | 16km/h | 22668m | 5.5m/s | -52.1°C | 3.7% | 0hPa | 2.6V | 00:00:00 | 00:00:00 | 00:00:00 | |
| PG1ADW-2 | 2026-09-05 12:32:48 | 45.75392 | 17.00760 | 324° | 16km/h | 22663m | 5.3m/s | -52.2°C | 3.8% | 0hPa | 2.6V | 00:00:00 | 00:00:00 | 00:00:00 | |
| 9A1FER-3 | 2026-09-05 12:32:39 | 45.75361 | 17.00777 | 3° | 15km/h | 22616m | 4.7m/s | -53.3°C | 4.3% | 0hPa | 2.6V | 00:00:00 | 01:28:28 | 00:00:00 | |
| PETON7-10 | 2026-09-05 12:32:32 | 45.75333 | 17.00794 | 323° | 13km/h | 22581m | 5.3m/s | -53.2°C | 4.3% | 0hPa | 2.6V | 00:00:00 | 01:28:21 | 00:00:00 | |
| PG1ADW-2 | 2026-09-05 12:32:28 | 45.75321 | 17.00802 | 352° | 11km/h | 22560m | 5.6m/s | -53.2°C | 4.3% | 0hPa | 2.6V | 00:00:00 | 00:00:00 | 00:00:00 | |
| 9A1FER-3 | 2026-09-05 12:32:24 | 45.75309 | 17.00809 | 324° | 11km/h | 22539m | 4.9m/s | -53.1°C | 4.3% | 0hPa | 2.6V | 00:00:00 | 01:28:13 | 00:00:00 | |
| PETON7-10 | 2026-09-05 12:32:15 | 45.75295 | 17.00845 | 287° | 13km/h | 22490m | 5.6m/s | -52.9°C | 4.2% | 0hPa | 2.7V | 00:00:00 | 00:00:00 | 00:00:00 | |
| 9A1FER-3 | 2026-09-05 12:32:09 | 45.75290 | 17.00861 | 311° | 13km/h | 22459m | 5.7m/s | -53.2°C | 4.3% | 0hPa | 2.7V | 00:00:00 | 01:27:58 | 00:00:00 | |
| PG1ADW-2 | 2026-09-05 12:32:08 | 45.75287 | 17.00865 | 314° | 13km/h | 22453m | 4.5m/s | -53.1°C | 4.2% | 0hPa | 2.7V | 00:00:00 | 00:00:00 | 08:30:00 | |
| PETON7-10 | 2026-09-05 12:31:58 | 45.75280 | 17.00907 | 273° | 11km/h | 22399m | 4.0m/s | -52.9°C | 4.2% | 0hPa | 2.7V | 00:00:00 | 00:00:00 | 00:00:00 | |
| 9A1FER-3 | 2026-09-05 12:31:54 | 45.75278 | 17.00924 | 293° | 11km/h | 22377m | 6.1m/s | -52.8°C | 4.2% | 0hPa | 2.7V | 00:00:00 | 01:27:43 | 00:00:00 | |
| PG1ADW-2 | 2026-09-05 12:31:48 | 45.75274 | 17.00948 | 275° | 11km/h | 22346m | 4.8m/s | -52.6°C | 4.2% | 0hPa | 2.7V | 00:00:00 | 01:27:37 | 00:00:00 | |
| PETON7-10 | 2026-09-05 12:31:43 | 45.75277 | 17.00966 | 262° | 11km/h | 22318m | 4.5m/s | -52.5°C | 4.2% | 0hPa | 2.7V | 00:00:00 | 01:27:32 | 00:00:00 | |
| 9A1FER-3 | 2026-09-05 12:31:39 | 45.75278 | 17.00980 | 281° | 13km/h | 22296m | 5.9m/s | -52.4°C | 4.2% | 0hPa | 2.7V | 00:00:00 | 01:27:28 | 00:00:00 | |
| PETON7-10 | 2026-09-05 12:31:28 | 45.75287 | 17.01027 | 253° | 11km/h | 22236m | 6.4m/s | -52.3°C | 4.1% | 0hPa | 2.7V | 00:00:00 | 00:00:00 | 08:30:00 | |
| 9A1FER-3 | 2026-09-05 12:31:24 | 45.75291 | 17.01049 | 250° | 9km/h | 22213m | 5.4m/s | -52.4°C | 4.1% | 0hPa | 2.7V | 00:00:00 | 01:27:13 | 00:00:00 | |
| OE5DRO-10 | 2026-09-05 12:31:18 | 45.75302 | 17.01070 | 206° | 9km/h | 22179m | 6.7m/s | 0°C | 0% | 0hPa | 2.7V | 00:00:00 | 00:00:00 | 00:00:00 | |
| PETON7-10 | 2026-09-05 12:31:12 | 45.75312 | 17.01071 | 201° | 9km/h | 22146m | 5.8m/s | -52.2°C | 4.1% | 0hPa | 2.7V | 00:00:00 | 00:00:00 | 00:00:00 | |
| 9A1FER-3 | 2026-09-05 12:31:09 | 45.75316 | 17.01075 | 205° | 9km/h | 22131m | 5.8m/s | -52.2°C | 4.1% | 0hPa | 2.7V | 00:00:00 | 01:26:58 | 00:00:00 | |
| PG1ADW-2 | 2026-09-05 12:31:08 | 45.75317 | 17.01075 | 190° | 9km/h | 22126m | 4.5m/s | -52.2°C | 4.1% | 0hPa | 2.7V | 00:00:00 | 00:00:00 | 00:00:00 | |
| OE5DRO-10 | 2026-09-05 12:30:59 | 45.75340 | 17.01065 | 113° | 11km/h | 22079m | 4.6m/s | 0°C | 0% | 0hPa | 2.6V | 00:00:00 | 00:00:00 | 00:00:00 | |
| PETON7-10 | 2026-09-05 12:30:57 | 45.75342 | 17.01059 | 122° | 11km/h | 22068m | 5.2m/s | -52.1°C | 4.1% | 0hPa | 2.6V | 00:00:00 | 01:26:46 | 00:00:00 | |
| 9A1FER-3 | 2026-09-05 12:30:54 | 45.75344 | 17.01052 | 113° | 13km/h | 22052m | 4.9m/s | -52.1°C | 4.1% | 0hPa | 2.6V | 00:00:00 | 01:26:43 | 08:30:00 | |
| PG1ADW-2 | 2026-09-05 12:30:48 | 45.75357 | 17.01042 | 156° | 13km/h | 22021m | 4.5m/s | -52.1°C | 4.1% | 0hPa | 2.6V | 00:00:00 | 00:00:00 | 00:00:00 | |
| PETON7-10 | 2026-09-05 12:30:41 | 45.75373 | 17.01020 | 99° | 13km/h | 21983m | 6.5m/s | -51.9°C | 4.0% | 0hPa | 2.6V | 00:00:00 | 00:00:00 | 00:00:00 | |
| 9A1FER-3 | 2026-09-05 12:30:39 | 45.75373 | 17.01008 | 87° | 13km/h | 21972m | 5.9m/s | -51.8°C | 3.9% | 0hPa | 2.7V | 00:00:00 | 01:26:28 | 00:00:00 | |
| PG1ADW-2 | 2026-09-05 12:30:28 | 45.75375 | 17.00961 | 65° | 18km/h | 21913m | 6.2m/s | -52.1°C | 4.0% | 0hPa | 2.7V | 00:00:00 | 01:26:17 | 00:00:00 | |
| 9A1FER-3 | 2026-09-05 12:30:24 | 45.75368 | 17.00941 | 72° | 20km/h | 21890m | 5.3m/s | -52.2°C | 4.1% | 0hPa | 2.7V | 00:00:00 | 01:26:13 | 00:00:00 | |
| 9A1FER-3 | 2026-09-05 12:30:09 | 45.75351 | 17.00842 | 70° | 13km/h | 21809m | 4.8m/s | -52.0°C | 3.9% | 0hPa | 2.7V | 00:00:00 | 01:25:58 | 00:00:00 | |
| PG1ADW-2 | 2026-09-05 12:30:08 | 45.75350 | 17.00837 | 70° | 11km/h | 21804m | 5.3m/s | -52.0°C | 3.9% | 0hPa | 2.7V | 00:00:00 | 00:00:00 | 00:00:00 | |
| 9A1FER-3 | 2026-09-05 12:29:54 | 45.75349 | 17.00771 | 88° | 7km/h | 21732m | 5.3m/s | -52.8°C | 4.1% | 0hPa | 2.6V | 00:00:00 | 01:25:43 | 00:00:00 | |
| PETON7-10 | 2026-09-05 12:29:49 | 45.75350 | 17.00759 | 81° | 7km/h | 21705m | 4.7m/s | -53.1°C | 4.1% | 0hPa | 2.6V | 00:00:00 | 01:25:38 | 00:00:00 | |
| PG1ADW-2 | 2026-09-05 12:29:48 | 45.75350 | 17.00759 | 100° | 9km/h | 21699m | 6.4m/s | -53.2°C | 4.2% | 0hPa | 2.6V | 00:00:00 | 00:00:00 | 00:00:00 | |
| 9A1FER-3 | 2026-09-05 12:29:39 | 45.75350 | 17.00736 | 110° | 11km/h | 21651m | 4.4m/s | -53.4°C | 4.2% | 0hPa | 2.6V | 00:00:00 | 01:25:28 | 00:00:00 | |
| PG1ADW-2 | 2026-09-05 12:29:27 | 45.75360 | 17.00695 | 127° | 13km/h | 21586m | 5.0m/s | -53.7°C | 4.3% | 0hPa | 2.6V | 00:00:00 | 00:00:00 | 00:00:00 | |
| 9A1FER-3 | 2026-09-05 12:29:24 | 45.75367 | 17.00684 | 134° | 13km/h | 21570m | 5.1m/s | -53.8°C | 4.3% | 0hPa | 2.6V | 00:00:00 | 01:25:13 | 00:00:00 | |
| 9A1FER-3 | 2026-09-05 12:29:09 | 45.75394 | 17.00632 | 117° | 18km/h | 21492m | 5.5m/s | -54.0°C | 4.3% | 0hPa | 2.6V | 00:00:00 | 01:24:58 | 00:00:00 | |
| PG1ADW-2 | 2026-09-05 12:29:07 | 45.75399 | 17.00619 | 117° | 13km/h | 21482m | 5.7m/s | -54.1°C | 4.3% | 0hPa | 2.6V | 00:00:00 | 01:24:56 | 08:30:00 | |
| 9A1FER-3 | 2026-09-05 12:28:54 | 45.75414 | 17.00539 | 104° | 16km/h | 21417m | 4.2m/s | -54.8°C | 4.6% | 0hPa | 2.7V | 00:00:00 | 01:24:43 | 00:00:00 | |
| 9A1FER-3 | 2026-09-05 12:28:39 | 45.75420 | 17.00449 | 84° | 9km/h | 21339m | 4.7m/s | -54.6°C | 4.5% | 0hPa | 2.7V | 00:00:00 | 01:24:28 | 08:30:00 | |
| PETON7-10 | 2026-09-05 12:28:32 | 45.75414 | 17.00427 | 63° | 9km/h | 21303m | 5.7m/s | -54.4°C | 4.4% | 0hPa | 2.7V | 00:00:00 | 00:00:00 | 00:00:00 | |
| 9A1FER-3 | 2026-09-05 12:28:24 | 45.75406 | 17.00407 | 63° | 7km/h | 21263m | 5.8m/s | -54.4°C | 4.5% | 0hPa | 2.6V | 00:00:00 | 01:24:13 | 00:00:00 | |
| PETON7-10 | 2026-09-05 12:28:16 | 45.75390 | 17.00400 | 307° | 5km/h | 21224m | 4.2m/s | -54.7°C | 4.5% | 0hPa | 2.6V | 00:00:00 | 00:00:00 | 00:00:00 | |
| 9A1FER-3 | 2026-09-05 12:28:09 | 45.75388 | 17.00399 | 63° | 7km/h | 21188m | 5.1m/s | -54.6°C | 4.6% | 0hPa | 2.6V | 00:00:00 | 01:23:58 | 00:00:00 | |
| PG1ADW-2 | 2026-09-05 12:28:03 | 45.75382 | 17.00387 | 91° | 18km/h | 21159m | 5.6m/s | -54.6°C | 4.5% | 0hPa | 2.6V | 00:00:00 | 00:00:00 | 00:00:00 | |
| PETON7-10 | 2026-09-05 12:28:00 | 45.75385 | 17.00379 | 119° | 9km/h | 21144m | 5.8m/s | -54.5°C | 4.5% | 0hPa | 2.6V | 00:00:00 | 01:23:49 | 00:00:00 | |
| 9A1FER-3 | 2026-09-05 12:27:54 | 45.75387 | 17.00364 | 81° | 11km/h | 21115m | 4.3m/s | -54.5°C | 4.6% | 0hPa | 2.6V | 00:00:00 | 01:23:43 | 00:00:00 | |
| PETON7-10 | 2026-09-05 12:27:44 | 45.75390 | 17.00328 | 104° | 16km/h | 21067m | 5.4m/s | -54.5°C | 4.5% | 0hPa | 2.7V | 00:00:00 | 00:00:00 | 08:30:00 | |
| PETON7-10 | 2026-09-05 12:27:29 | 45.75396 | 17.00240 | 82° | 20km/h | 20990m | 5.4m/s | -54.8°C | 4.6% | 0hPa | 2.7V | 00:00:00 | 00:00:00 | 00:00:00 | |
| 9A1FER-3 | 2026-09-05 12:27:24 | 45.75387 | 17.00209 | 71° | 24km/h | 20966m | 6.0m/s | -54.9°C | 4.6% | 0hPa | 2.7V | 00:00:00 | 01:23:13 | 00:00:00 | |
| PETON7-10 | 2026-09-05 12:27:11 | 45.75357 | 17.00108 | 50° | 26km/h | 20902m | 6.1m/s | -54.7°C | 4.6% | 0hPa | 2.7V | 00:00:00 | 01:23:00 | 00:00:00 | |
| 9A1FER-3 | 2026-09-05 12:27:09 | 45.75350 | 17.00095 | 57° | 24km/h | 20892m | 6.3m/s | -54.8°C | 4.6% | 0hPa | 2.7V | 00:00:00 | 01:22:58 | 00:00:00 | |
| PG1ADW-2 | 2026-09-05 12:26:59 | 45.75318 | 17.00018 | 45° | 18km/h | 20840m | 5.8m/s | -54.9°C | 4.6% | 0hPa | 2.6V | 00:00:00 | 00:00:00 | 00:00:00 | |
| PETON7-10 | 2026-09-05 12:26:55 | 45.75301 | 16.99995 | 46° | 18km/h | 20819m | 4.8m/s | -54.8°C | 4.6% | 0hPa | 2.6V | 00:00:00 | 00:00:00 | 00:00:00 | |
| 9A1FER-3 | 2026-09-05 12:26:54 | 45.75297 | 16.99989 | 52° | 16km/h | 20814m | 6.0m/s | -54.9°C | 4.6% | 0hPa | 2.6V | 00:00:00 | 01:22:43 | 00:00:00 | |
| PETON7-10 | 2026-09-05 12:26:40 | 45.75265 | 16.99918 | 63° | 18km/h | 20745m | 5.4m/s | -55.1°C | 4.7% | 0hPa | 2.6V | 00:00:00 | 00:00:00 | 00:00:00 | |
| 9A1FER-3 | 2026-09-05 12:26:39 | 45.75263 | 16.99912 | 67° | 18km/h | 20740m | 4.4m/s | -55.2°C | 4.7% | 0hPa | 2.6V | 00:00:00 | 01:22:28 | 00:00:00 | |
| PETON7-10 | 2026-09-05 12:26:25 | 45.75232 | 16.99827 | 41° | 18km/h | 20671m | 4.5m/s | -55.3°C | 4.6% | 0hPa | 2.6V | 00:00:00 | 01:22:14 | 00:00:00 | |
| 9A1FER-3 | 2026-09-05 12:26:24 | 45.75230 | 16.99824 | 47° | 18km/h | 20665m | 5.4m/s | -55.3°C | 4.6% | 0hPa | 2.6V | 00:00:00 | 01:22:13 | 08:30:00 | |
| PG1ADW-2 | 2026-09-05 12:26:19 | 45.75223 | 16.99799 | 87° | 18km/h | 20639m | 6.3m/s | -55.7°C | 4.7% | 0hPa | 2.7V | 00:00:00 | 00:00:00 | 00:00:00 | |
| PETON7-10 | 2026-09-05 12:26:09 | 45.75228 | 16.99732 | 106° | 22km/h | 20587m | 4.7m/s | -55.9°C | 4.9% | 0hPa | 2.7V | 00:00:00 | 00:00:00 | 00:00:00 | |
| PG1ADW-2 | 2026-09-05 12:25:59 | 45.75228 | 16.99661 | 93° | 29km/h | 20539m | 4.5m/s | 0°C | 0% | 0hPa | 2.7V | 00:00:00 | 00:00:00 | 00:00:00 | |
| 9A1FER-3 | 2026-09-05 12:25:54 | 45.75232 | 16.99616 | 90° | 29km/h | 20514m | 4.3m/s | -56.0°C | 4.9% | 0hPa | 2.7V | 00:00:00 | 01:21:43 | 00:00:00 | |
| 9A1FER-3 | 2026-09-05 12:25:39 | 45.75210 | 16.99457 | 79° | 35km/h | 20438m | 4.5m/s | -55.8°C | 4.9% | 0hPa | 2.7V | 00:00:00 | 01:21:28 | 00:00:00 | |
| PETON7-10 | 2026-09-05 12:25:24 | 45.75175 | 16.99274 | 76° | 33km/h | 20365m | 4.7m/s | -55.5°C | 4.7% | 0hPa | 2.6V | 00:00:00 | 00:00:00 | 08:30:00 | |
| PG1ADW-2 | 2026-09-05 12:25:19 | 45.75162 | 16.99215 | 78° | 38km/h | 20340m | 4.6m/s | 0°C | 0% | 0hPa | 2.6V | 00:00:00 | 01:21:08 | 00:00:00 | |
| 9A1FER-3 | 2026-09-05 12:25:09 | 45.75137 | 16.99085 | 74° | 37km/h | 20290m | 4.3m/s | -55.5°C | 4.7% | 0hPa | 2.6V | 00:00:00 | 01:20:58 | 00:00:00 | |
| PG1ADW-2 | 2026-09-05 12:24:59 | 45.75105 | 16.98957 | 71° | 38km/h | 20241m | 4.6m/s | 0°C | 0% | 0hPa | 2.6V | 00:00:00 | 00:00:00 | 00:00:00 | |
| 9A1FER-3 | 2026-09-05 12:24:54 | 45.75084 | 16.98901 | 61° | 40km/h | 20216m | 4.7m/s | -55.8°C | 4.8% | 0hPa | 2.6V | 00:00:00 | 01:20:43 | 00:00:00 | |
| 9A1FER-3 | 2026-09-05 12:24:39 | 45.75008 | 16.98712 | 56° | 33km/h | 20144m | 5.4m/s | -55.9°C | 4.9% | 0hPa | 2.7V | 00:00:00 | 01:20:28 | 00:00:00 | |
| PG1ADW-2 | 2026-09-05 12:24:36 | 45.74991 | 16.98677 | 55° | 31km/h | 20130m | 5.6m/s | 0°C | 0% | 0hPa | 2.7V | 00:00:00 | 00:00:00 | 00:00:00 | |
| 9A1FER-3 | 2026-09-05 12:24:24 | 45.74943 | 16.98558 | 64° | 29km/h | 20073m | 5.1m/s | -55.4°C | 4.8% | 0hPa | 2.7V | 00:00:00 | 01:20:13 | 00:00:00 | |
| PG1ADW-2 | 2026-09-05 12:24:16 | 45.74925 | 16.98480 | 67° | 29km/h | 20034m | 5.2m/s | 0°C | 0% | 0hPa | 2.7V | 00:00:00 | 00:00:00 | 00:00:00 | |
| 9A1FER-3 | 2026-09-05 12:24:09 | 45.74906 | 16.98409 | 82° | 27km/h | 19998m | 4.3m/s | -55.4°C | 4.5% | 0hPa | 2.7V | 00:00:00 | 01:19:58 | 08:30:00 | |
| 9A1FER-3 | 2026-09-05 12:23:54 | 45.74905 | 16.98262 | 105° | 29km/h | 19923m | 5.2m/s | -55.9°C | 4.8% | 0hPa | 2.6V | 00:00:00 | 01:19:43 | 00:00:00 | |
| 9A1FER-3 | 2026-09-05 12:23:39 | 45.74937 | 16.98111 | 92° | 29km/h | 19849m | 4.4m/s | -56.1°C | 5.0% | 0hPa | 2.6V | 00:00:00 | 01:19:28 | 00:00:00 | |
| PG1ADW-2 | 2026-09-05 12:23:37 | 45.74937 | 16.98090 | 85° | 29km/h | 19839m | 5.3m/s | 0°C | 0% | 0hPa | 2.6V | 00:00:00 | 01:19:26 | 00:00:00 | |
| PETON7-10 | 2026-09-05 12:23:34 | 45.74936 | 16.98058 | 99° | 33km/h | 19824m | 4.6m/s | -56.0°C | 4.9% | 0hPa | 2.6V | 00:00:00 | 00:00:00 | 00:00:00 | |
| 9A1FER-3 | 2026-09-05 12:23:24 | 45.74962 | 16.97963 | 100° | 31km/h | 19776m | 5.4m/s | -55.8°C | 4.9% | 0hPa | 2.6V | 00:00:00 | 01:19:13 | 00:00:00 | |
| PG1ADW-2 | 2026-09-05 12:23:16 | 45.74975 | 16.97880 | 113° | 31km/h | 19737m | 4.9m/s | 0°C | 0% | 0hPa | 2.7V | 00:00:00 | 00:00:00 | 00:00:00 | |
| 9A1FER-3 | 2026-09-05 12:23:09 | 45.74994 | 16.97807 | 106° | 31km/h | 19702m | 4.2m/s | -55.6°C | 4.8% | 0hPa | 2.7V | 00:00:00 | 01:18:58 | 00:00:00 | |
| PG1ADW-2 | 2026-09-05 12:22:55 | 45.75035 | 16.97663 | 115° | 27km/h | 19633m | 5.6m/s | 0°C | 0% | 0hPa | 2.7V | 00:00:00 | 00:00:00 | 00:00:00 | |
| 9A1FER-3 | 2026-09-05 12:22:54 | 45.75038 | 16.97654 | 115° | 29km/h | 19628m | 5.3m/s | -55.3°C | 4.7% | 0hPa | 2.7V | 00:00:00 | 01:18:43 | 00:00:00 | |
| 9A1FER-3 | 2026-09-05 12:22:39 | 45.75072 | 16.97500 | 98° | 33km/h | 19551m | 4.7m/s | -55.5°C | 4.6% | 0hPa | 2.7V | 00:00:00 | 01:18:28 | 00:00:00 | |
| PG1ADW-2 | 2026-09-05 12:22:35 | 45.75073 | 16.97449 | 93° | 42km/h | 19529m | 6.1m/s | 0°C | 0% | 0hPa | 2.6V | 00:00:00 | 00:00:00 | 00:00:00 | |
| 9A1FER-3 | 2026-09-05 12:22:24 | 45.75056 | 16.97326 | 73° | 44km/h | 19472m | 4.5m/s | -56.4°C | 5.0% | 0hPa | 2.6V | 00:00:00 | 01:18:13 | 00:00:00 | |
| PG1ADW-2 | 2026-09-05 12:22:11 | 45.75006 | 16.97130 | 63° | 44km/h | 19404m | 5.2m/s | 0°C | 0% | 0hPa | 2.6V | 00:00:00 | 01:18:00 | 00:00:00 | |
| 9A1FER-3 | 2026-09-05 12:22:09 | 45.74996 | 16.97105 | 57° | 44km/h | 19394m | 5.9m/s | -56.2°C | 4.9% | 0hPa | 2.6V | 00:00:00 | 01:17:58 | 00:00:00 | |
| PETON7-10 | 2026-09-05 12:22:03 | 45.74968 | 16.97026 | 67° | 47km/h | 19363m | 4.9m/s | -56.3°C | 4.9% | 0hPa | 2.6V | 00:00:00 | 01:17:52 | 00:00:00 | |
| 9A1FER-3 | 2026-09-05 12:21:54 | 45.74922 | 16.96892 | 55° | 47km/h | 19316m | 6.3m/s | -56.2°C | 5.0% | 0hPa | 2.6V | 00:00:00 | 01:17:43 | 08:30:00 | |
| PG1ADW-2 | 2026-09-05 12:21:51 | 45.74902 | 16.96853 | 53° | 47km/h | 19299m | 4.4m/s | 0°C | 0% | 0hPa | 2.6V | 00:00:00 | 00:00:00 | 00:00:00 | |
| 9A1FER-3 | 2026-09-05 12:21:39 | 45.74822 | 16.96679 | 56° | 46km/h | 19236m | 5.2m/s | -55.7°C | 4.7% | 0hPa | 2.6V | 00:00:00 | 01:17:28 | 00:00:00 | |
| PETON7-10 | 2026-09-05 12:21:36 | 45.74800 | 16.96640 | 50° | 46km/h | 19221m | 4.6m/s | -55.6°C | 4.6% | 0hPa | 2.6V | 00:00:00 | 00:00:00 | 00:00:00 | |
| PG1ADW-2 | 2026-09-05 12:21:31 | 45.74760 | 16.96576 | 47° | 47km/h | 19195m | 5.0m/s | 0°C | 0% | 0hPa | 2.6V | 00:00:00 | 00:00:00 | 00:00:00 | |
| 9A1FER-3 | 2026-09-05 12:21:24 | 45.74708 | 16.96489 | 53° | 44km/h | 19158m | 4.1m/s | -56.4°C | 4.9% | 0hPa | 2.6V | 00:00:00 | 01:17:13 | 00:00:00 | |
| PETON7-10 | 2026-09-05 12:21:21 | 45.74687 | 16.96451 | 50° | 42km/h | 19142m | 5.4m/s | -56.7°C | 5.0% | 0hPa | 2.6V | 00:00:00 | 00:00:00 | 00:00:00 | |
| 9A1FER-3 | 2026-09-05 12:21:09 | 45.74587 | 16.96325 | 44° | 35km/h | 19081m | 4.7m/s | -56.5°C | 4.9% | 0hPa | 2.6V | 00:00:00 | 01:16:58 | 00:00:00 | |
| PETON7-10 | 2026-09-05 12:21:06 | 45.74567 | 16.96299 | 45° | 35km/h | 19065m | 4.3m/s | -56.4°C | 4.9% | 0hPa | 2.6V | 00:00:00 | 01:16:55 | 00:00:00 | |
| 9A1FER-3 | 2026-09-05 12:20:54 | 45.74495 | 16.96190 | 52° | 33km/h | 19002m | 4.9m/s | -56.5°C | 5.0% | 0hPa | 2.6V | 00:00:00 | 01:16:43 | 00:00:00 | |
| PETON7-10 | 2026-09-05 12:20:51 | 45.74479 | 16.96162 | 48° | 33km/h | 18987m | 4.5m/s | -56.5°C | 5.0% | 0hPa | 2.6V | 00:00:00 | 00:00:00 | 00:00:00 | |
| 9A1FER-3 | 2026-09-05 12:20:39 | 45.74425 | 16.96042 | 64° | 29km/h | 18924m | 4.5m/s | -56.6°C | 5.0% | 0hPa | 2.7V | 00:00:00 | 01:16:28 | 00:00:00 | |
| PETON7-10 | 2026-09-05 12:20:36 | 45.74412 | 16.96012 | 59° | 27km/h | 18909m | 5.0m/s | -56.5°C | 5.0% | 0hPa | 2.7V | 00:00:00 | 00:00:00 | 00:00:00 | |
| 9A1FER-3 | 2026-09-05 12:20:24 | 45.74377 | 16.95907 | 68° | 24km/h | 18849m | 4.1m/s | -56.2°C | 5.0% | 0hPa | 2.7V | 00:00:00 | 01:16:13 | 00:00:00 | |
| PETON7-10 | 2026-09-05 12:20:21 | 45.74368 | 16.95881 | 60° | 26km/h | 18834m | 4.0m/s | -56.1°C | 4.9% | 0hPa | 2.7V | 00:00:00 | 01:16:10 | 00:00:00 | |
| 9A1FER-3 | 2026-09-05 12:20:09 | 45.74353 | 16.95782 | 93° | 29km/h | 18774m | 3.9m/s | -55.8°C | 4.7% | 0hPa | 2.7V | 00:00:00 | 01:15:58 | 00:00:00 | |
| PETON7-10 | 2026-09-05 12:20:03 | 45.74346 | 16.95725 | 82° | 35km/h | 18744m | 4.8m/s | -56.2°C | 4.7% | 0hPa | 2.7V | 00:00:00 | 00:00:00 | 08:30:00 | |
| 9A1FER-3 | 2026-09-05 12:19:54 | 45.74350 | 16.95624 | 94° | 37km/h | 18697m | 4.5m/s | -56.8°C | 5.0% | 0hPa | 2.7V | 00:00:00 | 01:15:43 | 00:00:00 | |
| PETON7-10 | 2026-09-05 12:19:48 | 45.74354 | 16.95540 | 96° | 33km/h | 18669m | 5.6m/s | -56.9°C | 5.0% | 0hPa | 2.7V | 00:00:00 | 00:00:00 | 00:00:00 | |
| 9A1FER-3 | 2026-09-05 12:19:39 | 45.74352 | 16.95432 | 86° | 29km/h | 18627m | 4.6m/s | -56.8°C | 5.0% | 0hPa | 2.7V | 00:00:00 | 01:15:28 | 08:30:00 | |
| PETON7-10 | 2026-09-05 12:19:33 | 45.74345 | 16.95362 | 80° | 26km/h | 18599m | 4.0m/s | -57.1°C | 5.1% | 0hPa | 2.7V | 00:00:00 | 01:15:22 | 00:00:00 | |
| 9A1FER-3 | 2026-09-05 12:19:24 | 45.74327 | 16.95277 | 69° | 22km/h | 18555m | 4.1m/s | -57.2°C | 5.0% | 0hPa | 2.7V | 00:00:00 | 01:15:13 | 00:00:00 | |
| PETON7-10 | 2026-09-05 12:19:18 | 45.74314 | 16.95228 | 65° | 22km/h | 18527m | 5.5m/s | -57.6°C | 5.2% | 0hPa | 2.7V | 00:00:00 | 00:00:00 | 00:00:00 | |
| 9A1FER-3 | 2026-09-05 12:19:09 | 45.74281 | 16.95179 | 41° | 22km/h | 18484m | 3.9m/s | -57.7°C | 5.3% | 0hPa | 2.7V | 00:00:00 | 01:14:58 | 00:00:00 | |
| PETON7-10 | 2026-09-05 12:19:03 | 45.74254 | 16.95140 | 49° | 18km/h | 18454m | 4.7m/s | -57.9°C | 5.4% | 0hPa | 2.7V | 00:00:00 | 00:00:00 | 00:00:00 | |
| 9A1FER-3 | 2026-09-05 12:18:54 | 45.74235 | 16.95090 | 80° | 15km/h | 18411m | 5.0m/s | -57.6°C | 5.4% | 0hPa | 2.7V | 00:00:00 | 01:14:43 | 00:00:00 | |
| PETON7-10 | 2026-09-05 12:18:48 | 45.74224 | 16.95057 | 62° | 15km/h | 18383m | 5.2m/s | -57.4°C | 5.2% | 0hPa | 2.7V | 00:00:00 | 01:14:37 | 00:00:00 | |
| 9A1FER-3 | 2026-09-05 12:18:39 | 45.74231 | 16.95018 | 105° | 15km/h | 18342m | 4.4m/s | -57.0°C | 5.1% | 0hPa | 2.7V | 00:00:00 | 01:14:28 | 00:00:00 | |
| PETON7-10 | 2026-09-05 12:18:33 | 45.74237 | 16.94985 | 124° | 15km/h | 18315m | 4.1m/s | -57.0°C | 5.0% | 0hPa | 2.7V | 00:00:00 | 00:00:00 | 00:00:00 | |
| 9A1FER-3 | 2026-09-05 12:18:24 | 45.74252 | 16.94945 | 94° | 20km/h | 18272m | 4.3m/s | -57.5°C | 5.2% | 0hPa | 2.7V | 00:00:00 | 01:14:13 | 00:00:00 | |
| PETON7-10 | 2026-09-05 12:18:18 | 45.74257 | 16.94909 | 115° | 22km/h | 18247m | 3.9m/s | -57.8°C | 5.4% | 0hPa | 2.7V | 00:00:00 | 00:00:00 | 00:00:00 | |
| PETON7-10 | 2026-09-05 12:18:02 | 45.74287 | 16.94783 | 111° | 24km/h | 18172m | 4.9m/s | -57.6°C | 5.5% | 0hPa | 2.7V | 00:00:00 | 01:13:51 | 00:00:00 | |
| 9A1FER-3 | 2026-09-05 12:17:54 | 45.74299 | 16.94712 | 107° | 26km/h | 18133m | 3.9m/s | -57.2°C | 5.3% | 0hPa | 2.7V | 00:00:00 | 01:13:43 | 00:00:00 | |
| 9A1FER-3 | 2026-09-05 12:17:39 | 45.74312 | 16.94575 | 104° | 27km/h | 18060m | 4.7m/s | -56.8°C | 4.9% | 0hPa | 2.7V | 00:00:00 | 01:13:28 | 00:00:00 | |
| 9A1FER-3 | 2026-09-05 12:17:24 | 45.74322 | 16.94425 | 101° | 27km/h | 17992m | 5.0m/s | -57.8°C | 5.2% | 0hPa | 2.7V | 00:00:00 | 01:13:13 | 08:30:00 | |
| PETON7-10 | 2026-09-05 12:17:16 | 45.74334 | 16.94348 | 96° | 27km/h | 17956m | 4.3m/s | -58.0°C | 5.5% | 0hPa | 2.7V | 00:00:00 | 00:00:00 | 08:30:00 | |
| 9A1FER-3 | 2026-09-05 12:17:09 | 45.74340 | 16.94279 | 99° | 24km/h | 17923m | 3.8m/s | -58.2°C | 5.5% | 0hPa | 2.7V | 00:00:00 | 01:12:58 | 00:00:00 | |
| 9A1FER-3 | 2026-09-05 12:16:54 | 45.74343 | 16.94152 | 109° | 22km/h | 17853m | 4.1m/s | -58.1°C | 5.5% | 0hPa | 2.7V | 00:00:00 | 01:12:43 | 00:00:00 | |
| 9A1FER-3 | 2026-09-05 12:16:39 | 45.74379 | 16.94047 | 127° | 27km/h | 17780m | 5.6m/s | -57.7°C | 5.4% | 0hPa | 2.7V | 00:00:00 | 01:12:28 | 00:00:00 | |
| 9A1FER-3 | 2026-09-05 12:16:24 | 45.74440 | 16.93927 | 131° | 37km/h | 17706m | 5.4m/s | -57.6°C | 5.5% | 0hPa | 2.6V | 00:00:00 | 01:12:13 | 00:00:00 | |
| 9A1FER-3 | 2026-09-05 12:16:09 | 45.74532 | 16.93784 | 135° | 38km/h | 17628m | 6.2m/s | -57.1°C | 5.3% | 0hPa | 2.6V | 00:00:00 | 01:11:58 | 00:00:00 | |
| PETON7-10 | 2026-09-05 12:16:01 | 45.74588 | 16.93713 | 151° | 55km/h | 17582m | 6.8m/s | -57.0°C | 5.3% | 0hPa | 2.6V | 00:00:00 | 00:00:00 | 00:00:00 | |
| 9A1FER-3 | 2026-09-05 12:15:54 | 45.74639 | 16.93645 | 124° | 47km/h | 17544m | 6.3m/s | -56.8°C | 5.2% | 0hPa | 2.6V | 00:00:00 | 01:11:43 | 00:00:00 | |
| 9A1FER-3 | 2026-09-05 12:15:40 | 45.74743 | 16.93430 | 118° | 53km/h | 17470m | 4.2m/s | -56.6°C | 5.2% | 0hPa | 2.6V | 00:00:00 | 01:11:28 | 00:00:00 | |
| 9A1FER-3 | 2026-09-05 12:15:24 | 45.74847 | 16.93193 | 116° | 58km/h | 17398m | 5.4m/s | -57.1°C | 5.4% | 0hPa | 2.6V | 00:00:00 | 01:11:13 | 00:00:00 | |
| 9A1FER-3 | 2026-09-05 12:15:09 | 45.74928 | 16.92897 | 106° | 66km/h | 17322m | 4.3m/s | -57.9°C | 5.8% | 0hPa | 2.6V | 00:00:00 | 01:10:58 | 08:30:00 | |
| PETON7-10 | 2026-09-05 12:15:07 | 45.74938 | 16.92852 | 109° | 64km/h | 17314m | 4.5m/s | -57.7°C | 5.7% | 0hPa | 2.6V | 00:00:00 | 01:10:56 | 00:00:00 | |
| 9A1FER-3 | 2026-09-05 12:14:54 | 45.74995 | 16.92560 | 108° | 58km/h | 17257m | 4.2m/s | -57.5°C | 5.5% | 0hPa | 2.6V | 00:00:00 | 01:10:43 | 00:00:00 | |
| 9A1FER-3 | 2026-09-05 12:14:39 | 45.75062 | 16.92257 | 115° | 58km/h | 17189m | 4.6m/s | -59.0°C | 6.1% | 0hPa | 2.6V | 00:00:00 | 01:10:28 | 00:00:00 | |
| 9A1FER-3 | 2026-09-05 12:14:24 | 45.75121 | 16.91953 | 102° | 68km/h | 17119m | 4.4m/s | -59.9°C | 6.6% | 0hPa | 2.6V | 00:00:00 | 01:10:13 | 00:00:00 | |
| OE3JTB-15 | 2026-09-05 12:14:15 | 45.75143 | 16.91735 | 94° | 68km/h | 17081m | 3.9m/s | 0°C | 0% | 0hPa | 2.7V | 00:00:00 | 00:00:00 | 00:00:00 | |
| 9A1FER-3 | 2026-09-05 12:14:09 | 45.75143 | 16.91589 | 89° | 66km/h | 17055m | 4.3m/s | -60.8°C | 7.2% | 0hPa | 2.7V | 00:00:00 | 01:09:58 | 00:00:00 | |
| 9A1FER-3 | 2026-09-05 12:13:54 | 45.75120 | 16.91234 | 82° | 64km/h | 16987m | 4.2m/s | -60.9°C | 7.3% | 0hPa | 2.7V | 00:00:00 | 01:09:43 | 00:00:00 | |
| OE3JTB-15 | 2026-09-05 12:13:46 | 45.75107 | 16.91038 | 83° | 55km/h | 16953m | 3.6m/s | 0°C | 0% | 0hPa | 2.7V | 00:00:00 | 01:09:35 | 00:00:00 | |
| 9A1FER-3 | 2026-09-05 12:13:39 | 45.75087 | 16.90896 | 78° | 57km/h | 16920m | 4.2m/s | -61.0°C | 7.3% | 0hPa | 2.7V | 00:00:00 | 01:09:28 | 00:00:00 | |
| 9A1FER-3 | 2026-09-05 12:13:24 | 45.75045 | 16.90598 | 74° | 51km/h | 16851m | 4.2m/s | -60.8°C | 7.4% | 0hPa | 2.6V | 00:00:00 | 01:09:13 | 00:00:00 | |
| OE3JTB-15 | 2026-09-05 12:13:12 | 45.75008 | 16.90380 | 67° | 49km/h | 16795m | 4.6m/s | 0°C | 0% | 0hPa | 2.6V | 00:00:00 | 00:00:00 | 00:00:00 | |
| 9A1FER-3 | 2026-09-05 12:13:09 | 45.74995 | 16.90333 | 71° | 49km/h | 16781m | 3.6m/s | -60.4°C | 7.2% | 0hPa | 2.6V | 00:00:00 | 01:08:58 | 00:00:00 | |
| 9A1FER-3 | 2026-09-05 12:12:54 | 45.74946 | 16.90076 | 78° | 44km/h | 16712m | 4.1m/s | -60.1°C | 7.2% | 0hPa | 2.6V | 00:00:00 | 01:08:43 | 08:30:00 | |
| 9A1FER-3 | 2026-09-05 12:12:39 | 45.74892 | 16.89848 | 69° | 46km/h | 16639m | 4.0m/s | -59.5°C | 7.1% | 0hPa | 2.7V | 00:00:00 | 01:08:28 | 00:00:00 | |
| 9A1FER-3 | 2026-09-05 12:12:24 | 45.74817 | 16.89621 | 63° | 49km/h | 16567m | 5.1m/s | -58.9°C | 6.7% | 0hPa | 2.7V | 00:00:00 | 01:08:13 | 00:00:00 | |
| 9A1FER-3 | 2026-09-05 12:12:09 | 45.74735 | 16.89385 | 56° | 44km/h | 16493m | 3.6m/s | -58.4°C | 6.4% | 0hPa | 2.7V | 00:00:00 | 01:07:58 | 00:00:00 | |
| 9A1FER-3 | 2026-09-05 12:11:54 | 45.74662 | 16.89178 | 69° | 46km/h | 16423m | 5.5m/s | -57.9°C | 6.6% | 0hPa | 2.6V | 00:00:00 | 01:07:43 | 00:00:00 | |
| 9A1FER-3 | 2026-09-05 12:11:39 | 45.74603 | 16.88942 | 78° | 47km/h | 16350m | 4.5m/s | -57.5°C | 6.4% | 0hPa | 2.6V | 00:00:00 | 01:07:28 | 00:00:00 | |
| 9A1FER-3 | 2026-09-05 12:11:24 | 45.74561 | 16.88695 | 83° | 53km/h | 16274m | 4.6m/s | -57.9°C | 6.8% | 0hPa | 2.6V | 00:00:00 | 01:07:13 | 00:00:00 | |
| 9A1FER-3 | 2026-09-05 12:11:09 | 45.74553 | 16.88406 | 95° | 60km/h | 16202m | 5.6m/s | -58.3°C | 7.1% | 0hPa | 2.7V | 00:00:00 | 01:06:58 | 00:00:00 | |
| 9A1FER-3 | 2026-09-05 12:10:54 | 45.74576 | 16.88078 | 94° | 68km/h | 16136m | 4.7m/s | -58.6°C | 7.2% | 0hPa | 2.7V | 00:00:00 | 01:06:43 | 00:00:00 | |
| 9A1FER-3 | 2026-09-05 12:10:39 | 45.74596 | 16.87713 | 97° | 75km/h | 16070m | 4.1m/s | -60.5°C | 8.1% | 0hPa | 2.7V | 00:00:00 | 01:06:28 | 08:30:00 | |
| 9A1FER-3 | 2026-09-05 12:10:24 | 45.74631 | 16.87311 | 101° | 77km/h | 16008m | 4.6m/s | -61.0°C | 8.4% | 0hPa | 2.6V | 00:00:00 | 01:06:13 | 00:00:00 | |
| 9A1FER-3 | 2026-09-05 12:10:09 | 45.74680 | 16.86899 | 99° | 78km/h | 15946m | 4.0m/s | -61.3°C | 8.9% | 0hPa | 2.6V | 00:00:00 | 01:05:58 | 00:00:00 | |
| 9A1FER-3 | 2026-09-05 12:09:54 | 45.74726 | 16.86475 | 99° | 78km/h | 15883m | 3.8m/s | -61.3°C | 8.8% | 0hPa | 2.6V | 00:00:00 | 01:05:43 | 00:00:00 | |
| 9A1FER-3 | 2026-09-05 12:09:39 | 45.74784 | 16.86057 | 103° | 82km/h | 15821m | 3.9m/s | -61.9°C | 9.6% | 0hPa | 2.7V | 00:00:00 | 01:05:28 | 00:00:00 | |
| PETON7-10 | 2026-09-05 12:09:34 | 45.74807 | 16.85920 | 105° | 86km/h | 15801m | 4.4m/s | -61.8°C | 9.6% | 0hPa | 2.7V | 00:00:00 | 00:00:00 | 00:00:00 | |
| 9A1FER-3 | 2026-09-05 12:09:24 | 45.74860 | 16.85620 | 105° | 84km/h | 15761m | 3.6m/s | -61.4°C | 9.5% | 0hPa | 2.7V | 00:00:00 | 01:05:13 | 00:00:00 | |
| PETON7-10 | 2026-09-05 12:09:19 | 45.74879 | 16.85469 | 98° | 82km/h | 15740m | 5.4m/s | -61.3°C | 9.3% | 0hPa | 2.7V | 00:00:00 | 01:05:08 | 00:00:00 | |
| 9A1FER-3 | 2026-09-05 12:09:09 | 45.74911 | 16.85175 | 96° | 80km/h | 15696m | 4.0m/s | -60.8°C | 9.1% | 0hPa | 2.7V | 00:00:00 | 01:04:58 | 00:00:00 | |
| PETON7-10 | 2026-09-05 12:09:04 | 45.74921 | 16.85029 | 97° | 82km/h | 15672m | 5.9m/s | -60.6°C | 9.0% | 0hPa | 2.6V | 00:00:00 | 00:00:00 | 00:00:00 | |
| 9A1FER-3 | 2026-09-05 12:08:54 | 45.74946 | 16.84738 | 97° | 84km/h | 15628m | 5.0m/s | -60.4°C | 8.9% | 0hPa | 2.6V | 00:00:00 | 01:04:43 | 00:00:00 | |
| PETON7-10 | 2026-09-05 12:08:49 | 45.74957 | 16.84586 | 97° | 86km/h | 15605m | 5.2m/s | -60.3°C | 8.8% | 0hPa | 2.6V | 00:00:00 | 00:00:00 | 00:00:00 | |
| 9A1FER-3 | 2026-09-05 12:08:39 | 45.74980 | 16.84286 | 98° | 84km/h | 15559m | 3.4m/s | -60.4°C | 8.7% | 0hPa | 2.6V | 00:00:00 | 01:04:28 | 00:00:00 | |
| PETON7-10 | 2026-09-05 12:08:34 | 45.74993 | 16.84126 | 97° | 82km/h | 15538m | 3.6m/s | -60.5°C | 8.7% | 0hPa | 2.6V | 00:00:00 | 01:04:23 | 00:00:00 | |
| 9A1FER-3 | 2026-09-05 12:08:24 | 45.75016 | 16.83833 | 99° | 80km/h | 15497m | 3.8m/s | -60.6°C | 9.1% | 0hPa | 2.6V | 00:00:00 | 01:04:13 | 08:30:00 | |
| PETON7-10 | 2026-09-05 12:08:19 | 45.75029 | 16.83695 | 98° | 78km/h | 15476m | 3.5m/s | -60.7°C | 9.2% | 0hPa | 2.7V | 00:00:00 | 00:00:00 | 08:30:00 | |
| 9A1FER-3 | 2026-09-05 12:08:09 | 45.75052 | 16.83399 | 95° | 78km/h | 15432m | 4.4m/s | -60.8°C | 9.1% | 0hPa | 2.7V | 00:00:00 | 01:03:58 | 00:00:00 | |
| PETON7-10 | 2026-09-05 12:08:04 | 45.75058 | 16.83265 | 93° | 78km/h | 15410m | 5.0m/s | -60.8°C | 9.0% | 0hPa | 2.7V | 00:00:00 | 00:00:00 | 00:00:00 | |
| 9A1FER-3 | 2026-09-05 12:07:54 | 45.75075 | 16.82979 | 94° | 80km/h | 15365m | 3.9m/s | -60.8°C | 8.9% | 0hPa | 2.7V | 00:00:00 | 01:03:43 | 00:00:00 | |
| PETON7-10 | 2026-09-05 12:07:49 | 45.75080 | 16.82840 | 93° | 82km/h | 15341m | 4.3m/s | -60.7°C | 8.6% | 0hPa | 2.7V | 00:00:00 | 01:03:38 | 00:00:00 | |
| 9A1FER-3 | 2026-09-05 12:07:39 | 45.75097 | 16.82546 | 96° | 86km/h | 15294m | 4.9m/s | -61.7°C | 9.4% | 0hPa | 2.7V | 00:00:00 | 01:03:28 | 00:00:00 | |
| PETON7-10 | 2026-09-05 12:07:36 | 45.75108 | 16.82394 | 98° | 86km/h | 15270m | 4.4m/s | -61.7°C | 9.7% | 0hPa | 2.6V | 00:00:00 | 00:00:00 | 00:00:00 | |
| 9A1FER-3 | 2026-09-05 12:07:24 | 45.75126 | 16.82084 | 94° | 89km/h | 15223m | 4.3m/s | -61.5°C | 9.7% | 0hPa | 2.6V | 00:00:00 | 01:03:13 | 00:00:00 | |
| PETON7-10 | 2026-09-05 12:07:19 | 45.75134 | 16.81926 | 96° | 88km/h | 15198m | 5.2m/s | 0°C | 0% | 0hPa | 2.6V | 00:00:00 | 00:00:00 | 00:00:00 | |
| 9A1FER-3 | 2026-09-05 12:07:09 | 45.75157 | 16.81605 | 97° | 86km/h | 15147m | 4.8m/s | -60.9°C | 9.5% | 0hPa | 2.6V | 00:00:00 | 01:02:58 | 00:00:00 | |
| PETON7-10 | 2026-09-05 12:07:04 | 45.75169 | 16.81452 | 97° | 86km/h | 15123m | 5.9m/s | 0°C | 0% | 0hPa | 2.6V | 00:00:00 | 01:02:53 | 00:00:00 | |
| 9A1FER-3 | 2026-09-05 12:06:54 | 45.75187 | 16.81142 | 94° | 86km/h | 15073m | 4.4m/s | -60.3°C | 9.7% | 0hPa | 2.6V | 00:00:00 | 01:02:43 | 00:00:00 | |
| PETON7-10 | 2026-09-05 12:06:49 | 45.75202 | 16.80991 | 102° | 84km/h | 15050m | 4.8m/s | 0°C | 0% | 0hPa | 2.7V | 00:00:00 | 00:00:00 | 00:00:00 | |
| 9A1FER-3 | 2026-09-05 12:06:39 | 45.75224 | 16.80685 | 98° | 84km/h | 14998m | 5.5m/s | -60.0°C | 9.6% | 0hPa | 2.7V | 00:00:00 | 01:02:28 | 00:00:00 | |
| PETON7-10 | 2026-09-05 12:06:34 | 45.75241 | 16.80538 | 102° | 104km/h | 14969m | 7.1m/s | 0°C | 0% | 0hPa | 2.7V | 00:00:00 | 00:00:00 | 00:00:00 | |
| 9A1FER-3 | 2026-09-05 12:06:24 | 45.75283 | 16.80236 | 99° | 86km/h | 14919m | 4.2m/s | -60.0°C | 10.1% | 0hPa | 2.7V | 00:00:00 | 01:02:13 | 00:00:00 | |
| 9A1FER-3 | 2026-09-05 12:06:09 | 45.75334 | 16.79777 | 95° | 86km/h | 14847m | 5.4m/s | -60.3°C | 10.9% | 0hPa | 2.7V | 00:00:00 | 01:01:58 | 08:30:00 | |
| 9A1FER-3 | 2026-09-05 12:05:54 | 45.75379 | 16.79319 | 97° | 88km/h | 14774m | 5.1m/s | -60.0°C | 11.4% | 0hPa | 2.7V | 00:00:00 | 01:01:43 | 00:00:00 | |
| 9A1FER-3 | 2026-09-05 12:05:39 | 45.75434 | 16.78850 | 101° | 89km/h | 14700m | 4.4m/s | -60.8°C | 12.4% | 0hPa | 2.7V | 00:00:00 | 01:01:28 | 00:00:00 | |
| 9A1FER-3 | 2026-09-05 12:05:24 | 45.75486 | 16.78367 | 96° | 91km/h | 14630m | 4.7m/s | -61.8°C | 13.5% | 0hPa | 2.7V | 00:00:00 | 01:01:13 | 00:00:00 | |
| 9A1FER-3 | 2026-09-05 12:05:09 | 45.75525 | 16.77879 | 96° | 89km/h | 14560m | 4.3m/s | -61.4°C | 14.0% | 0hPa | 2.7V | 00:00:00 | 01:00:58 | 00:00:00 | |
| 9A1FER-3 | 2026-09-05 12:04:54 | 45.75564 | 16.77395 | 100° | 93km/h | 14490m | 4.6m/s | -62.1°C | 16.0% | 0hPa | 2.7V | 00:00:00 | 01:00:43 | 00:00:00 | |
| 9A1FER-3 | 2026-09-05 12:04:39 | 45.75614 | 16.76890 | 99° | 99km/h | 14424m | 3.4m/s | -62.7°C | 18.8% | 0hPa | 2.7V | 00:00:00 | 01:00:28 | 00:00:00 | |
| 9A1FER-3 | 2026-09-05 12:04:24 | 45.75671 | 16.76363 | 100° | 104km/h | 14357m | 4.8m/s | -62.6°C | 21.4% | 0hPa | 2.7V | 00:00:00 | 01:00:13 | 00:00:00 | |
| 9A1FER-3 | 2026-09-05 12:04:09 | 45.75738 | 16.75806 | 98° | 106km/h | 14284m | 3.6m/s | -62.8°C | 25.5% | 0hPa | 2.7V | 00:00:00 | 00:59:58 | 00:00:00 | |
| 9A1FER-3 | 2026-09-05 12:03:54 | 45.75799 | 16.75235 | 99° | 110km/h | 14220m | 4.1m/s | -63.0°C | 28.9% | 0hPa | 2.7V | 00:00:00 | 00:59:43 | 08:30:00 | |
| 9A1FER-3 | 2026-09-05 12:03:39 | 45.75842 | 16.74643 | 97° | 115km/h | 14156m | 3.2m/s | -63.5°C | 34.8% | 0hPa | 2.7V | 00:00:00 | 00:59:28 | 00:00:00 | |
| 9A1FER-3 | 2026-09-05 12:03:24 | 45.75882 | 16.74019 | 97° | 113km/h | 14096m | 4.0m/s | -64.1°C | 39.6% | 0hPa | 2.7V | 00:00:00 | 00:59:13 | 00:00:00 | |
| PETON7-10 | 2026-09-05 12:03:17 | 45.75897 | 16.73732 | 94° | 108km/h | 14069m | 3.7m/s | 0°C | 0% | 0hPa | 2.7V | 00:00:00 | 00:59:06 | 00:00:00 | |
| 9A1FER-3 | 2026-09-05 12:03:09 | 45.75901 | 16.73407 | 89° | 113km/h | 14035m | 3.7m/s | -64.6°C | 43.4% | 0hPa | 2.7V | 00:00:00 | 00:58:58 | 00:00:00 | |
| 9A1FER-3 | 2026-09-05 12:02:54 | 45.75885 | 16.72796 | 87° | 113km/h | 13979m | 2.8m/s | -65.6°C | 49.9% | 0hPa | 2.7V | 00:00:00 | 00:58:43 | 00:00:00 | |
| 9A1FER-3 | 2026-09-05 12:02:39 | 45.75888 | 16.72187 | 95° | 110km/h | 13917m | 4.1m/s | -66.1°C | 53.0% | 0hPa | 2.7V | 00:00:00 | 00:58:28 | 00:00:00 | |
| 9A1FER-3 | 2026-09-05 12:02:24 | 45.75905 | 16.71600 | 93° | 106km/h | 13855m | 3.6m/s | -65.6°C | 49.7% | 0hPa | 2.7V | 00:00:00 | 00:58:13 | 00:00:00 | |
| 9A1FER-3 | 2026-09-05 12:02:09 | 45.75928 | 16.71031 | 94° | 104km/h | 13793m | 4.0m/s | -65.0°C | 48.6% | 0hPa | 2.7V | 00:00:00 | 00:57:58 | 00:00:00 | |
| 9A1FER-3 | 2026-09-05 12:01:54 | 45.75938 | 16.70469 | 92° | 100km/h | 13727m | 4.3m/s | -64.5°C | 45.1% | 0hPa | 2.7V | 00:00:00 | 00:57:43 | 00:00:00 | |
| 9A1FER-3 | 2026-09-05 12:01:39 | 45.75952 | 16.69924 | 92° | 100km/h | 13660m | 5.3m/s | -63.9°C | 43.9% | 0hPa | 2.7V | 00:00:00 | 00:57:28 | 08:30:00 | |
| 9A1FER-3 | 2026-09-05 12:01:24 | 45.75968 | 16.69382 | 94° | 99km/h | 13592m | 4.9m/s | -63.3°C | 41.5% | 0hPa | 2.7V | 00:00:00 | 00:57:13 | 00:00:00 | |
| 9A1FER-3 | 2026-09-05 12:01:09 | 45.75993 | 16.68848 | 96° | 95km/h | 13517m | 5.4m/s | -62.7°C | 38.0% | 0hPa | 2.7V | 00:00:00 | 00:56:58 | 00:00:00 | |
| 9A1FER-3 | 2026-09-05 12:00:54 | 45.76032 | 16.68341 | 97° | 91km/h | 13436m | 6.2m/s | -62.3°C | 37.1% | 0hPa | 2.7V | 00:00:00 | 00:56:43 | 00:00:00 | |
| 9A1FER-3 | 2026-09-05 12:00:39 | 45.76067 | 16.67846 | 99° | 86km/h | 13361m | 5.4m/s | -62.1°C | 35.8% | 0hPa | 2.7V | 00:00:00 | 00:56:28 | 00:00:00 | |
| 9A1FER-3 | 2026-09-05 12:00:24 | 45.76125 | 16.67393 | 97° | 78km/h | 13286m | 5.1m/s | -61.8°C | 35.7% | 0hPa | 2.7V | 00:00:00 | 00:56:13 | 00:00:00 | |
| 9A1FER-3 | 2026-09-05 12:00:09 | 45.76185 | 16.66972 | 99° | 78km/h | 13219m | 4.2m/s | -61.4°C | 37.2% | 0hPa | 2.7V | 00:00:00 | 00:55:58 | 00:00:00 | |
| 9A1FER-3 | 2026-09-05 11:59:54 | 45.76264 | 16.66561 | 107° | 82km/h | 13141m | 4.3m/s | -60.8°C | 37.0% | 0hPa | 2.7V | 00:00:00 | 00:55:43 | 00:00:00 | |
| 9A1FER-3 | 2026-09-05 11:59:39 | 45.76342 | 16.66130 | 107° | 82km/h | 13064m | 4.7m/s | -60.2°C | 37.0% | 0hPa | 2.7V | 00:00:00 | 00:55:28 | 00:00:00 | |
| 9A1FER-3 | 2026-09-05 11:59:24 | 45.76420 | 16.65701 | 102° | 84km/h | 12990m | 5.6m/s | -59.8°C | 37.7% | 0hPa | 2.7V | 00:00:00 | 00:55:13 | 08:30:00 | |
| 9A1FER-3 | 2026-09-05 11:59:09 | 45.76499 | 16.65260 | 107° | 88km/h | 12918m | 4.2m/s | -59.6°C | 40.1% | 0hPa | 2.7V | 00:00:00 | 00:54:58 | 00:00:00 | |
| 9A1FER-3 | 2026-09-05 11:58:54 | 45.76591 | 16.64799 | 105° | 93km/h | 12842m | 5.2m/s | -59.2°C | 40.5% | 0hPa | 2.7V | 00:00:00 | 00:54:43 | 00:00:00 | |
| 9A1FER-3 | 2026-09-05 11:58:39 | 45.76682 | 16.64314 | 103° | 95km/h | 12767m | 4.1m/s | -59.0°C | 42.4% | 0hPa | 2.7V | 00:00:00 | 00:54:28 | 00:00:00 | |
| 9A1FER-3 | 2026-09-05 11:58:24 | 45.76770 | 16.63818 | 104° | 93km/h | 12696m | 5.2m/s | -58.5°C | 43.3% | 0hPa | 2.7V | 00:00:00 | 00:54:13 | 00:00:00 | |
| 9A1FER-3 | 2026-09-05 11:58:09 | 45.76853 | 16.63322 | 105° | 93km/h | 12624m | 5.5m/s | -58.1°C | 42.1% | 0hPa | 2.7V | 00:00:00 | 00:53:58 | 00:00:00 | |
| 9A1FER-3 | 2026-09-05 11:57:54 | 45.76949 | 16.62835 | 107° | 95km/h | 12550m | 4.8m/s | -58.2°C | 41.9% | 0hPa | 2.7V | 00:00:00 | 00:53:43 | 00:00:00 | |
| 9A1FER-3 | 2026-09-05 11:57:39 | 45.77055 | 16.62346 | 107° | 100km/h | 12486m | 3.5m/s | -57.8°C | 40.2% | 0hPa | 2.7V | 00:00:00 | 00:53:28 | 00:00:00 | |
| 9A1FER-3 | 2026-09-05 11:57:24 | 45.77128 | 16.61813 | 98° | 97km/h | 12407m | 4.4m/s | -57.1°C | 38.5% | 0hPa | 2.7V | 00:00:00 | 00:53:13 | 00:00:00 | |
| 9A1FER-3 | 2026-09-05 11:57:09 | 45.77200 | 16.61296 | 101° | 97km/h | 12323m | 3.2m/s | -56.4°C | 36.3% | 0hPa | 2.7V | 00:00:00 | 00:52:58 | 08:30:00 | |
| PETON7-10 | 2026-09-05 11:56:56 | 45.77253 | 16.60848 | 100° | 99km/h | 12268m | 5.5m/s | 0°C | 0% | 0hPa | 2.7V | 00:00:00 | 00:00:00 | 08:30:00 | |
| 9A1FER-3 | 2026-09-05 11:56:54 | 45.77263 | 16.60777 | 103° | 99km/h | 12258m | 5.5m/s | -56.1°C | 35.1% | 0hPa | 2.7V | 00:00:00 | 00:52:43 | 00:00:00 | |
| 9A1FER-3 | 2026-09-05 11:56:39 | 45.77318 | 16.60249 | 99° | 100km/h | 12194m | 3.9m/s | -55.5°C | 33.1% | 0hPa | 2.7V | 00:00:00 | 00:52:28 | 00:00:00 | |
| 9A1FER-3 | 2026-09-05 11:56:09 | 45.77407 | 16.59144 | 96° | 100km/h | 12062m | 4.0m/s | -54.4°C | 31.3% | 0hPa | 2.7V | 00:00:00 | 00:51:58 | 00:00:00 | |
| 9A1FER-3 | 2026-09-05 11:55:54 | 45.77445 | 16.58597 | 96° | 108km/h | 11989m | 5.2m/s | -53.8°C | 29.7% | 0hPa | 2.7V | 00:00:00 | 00:51:43 | 00:00:00 | |
| 9A1FER-3 | 2026-09-05 11:55:39 | 45.77459 | 16.58017 | 92° | 102km/h | 11914m | 3.7m/s | -53.6°C | 29.3% | 0hPa | 2.7V | 00:00:00 | 00:51:28 | 00:00:00 | |
| 9A1FER-3 | 2026-09-05 11:55:24 | 45.77455 | 16.57460 | 90° | 97km/h | 11838m | 6.1m/s | -53.0°C | 28.1% | 0hPa | 2.7V | 00:00:00 | 00:51:13 | 00:00:00 | |
| 9A1FER-3 | 2026-09-05 11:55:09 | 45.77440 | 16.56941 | 90° | 97km/h | 11758m | 4.3m/s | -52.2°C | 26.9% | 0hPa | 2.7V | 00:00:00 | 00:50:58 | 00:00:00 | |
| 9A1FER-3 | 2026-09-05 11:54:54 | 45.77437 | 16.56412 | 88° | 95km/h | 11677m | 5.4m/s | -51.5°C | 24.8% | 0hPa | 2.7V | 00:00:00 | 00:50:43 | 08:30:00 | |
| 9A1FER-3 | 2026-09-05 11:54:39 | 45.77418 | 16.55903 | 86° | 97km/h | 11603m | 4.3m/s | -50.7°C | 24.3% | 0hPa | 2.7V | 00:00:00 | 00:50:28 | 00:00:00 | |
| 9A1FER-3 | 2026-09-05 11:54:24 | 45.77419 | 16.55381 | 93° | 100km/h | 11517m | 3.2m/s | -50.4°C | 27.4% | 0hPa | 2.7V | 00:00:00 | 00:50:13 | 00:00:00 | |
| 9A1FER-3 | 2026-09-05 11:54:09 | 45.77446 | 16.54839 | 102° | 106km/h | 11439m | 4.8m/s | -50.4°C | 29.8% | 0hPa | 2.7V | 00:00:00 | 00:49:58 | 00:00:00 | |
| 9A1FER-3 | 2026-09-05 11:53:54 | 45.77518 | 16.54271 | 103° | 115km/h | 11367m | 7.4m/s | -50.1°C | 30.0% | 0hPa | 2.7V | 00:00:00 | 00:49:43 | 00:00:00 | |
| 9A1FER-3 | 2026-09-05 11:53:39 | 45.77635 | 16.53668 | 107° | 113km/h | 11293m | 3.8m/s | -49.6°C | 31.9% | 0hPa | 2.7V | 00:00:00 | 00:49:28 | 00:00:00 | |
| 9A1FER-3 | 2026-09-05 11:53:24 | 45.77768 | 16.53081 | 108° | 120km/h | 11221m | 5.4m/s | -49.2°C | 36.6% | 0hPa | 2.7V | 00:00:00 | 00:49:13 | 00:00:00 | |
| OM5KV | 2026-09-05 11:53:19 | 45.77803 | 16.52917 | 110° | 124km/h | 11203m | 3.5m/s | -49.2°C | 31.8% | 0hPa | 2.9V | 00:00:00 | 00:00:00 | 00:00:00 | |
| OM5KV | 2026-09-05 11:53:14 | 45.77860 | 16.52708 | 113° | 122km/h | 11179m | 5.4m/s | -49.1°C | 32.0% | 0hPa | 2.9V | 00:00:00 | 00:00:00 | 00:00:00 | |
| 9A1FER-3 | 2026-09-05 11:53:09 | 45.77918 | 16.52462 | 108° | 117km/h | 11148m | 4.8m/s | -48.8°C | 38.3% | 0hPa | 2.9V | 00:00:00 | 00:48:58 | 00:00:00 | |
| OM5KV | 2026-09-05 11:53:08 | 45.77917 | 16.52462 | 109° | 120km/h | 11148m | 4.8m/s | -48.9°C | 30.8% | 0hPa | 2.9V | 00:00:00 | 00:00:00 | 00:00:00 | |
| OM5KV | 2026-09-05 11:53:02 | 45.77976 | 16.52218 | 109° | 119km/h | 11116m | 6.4m/s | -48.6°C | 29.7% | 0hPa | 2.9V | 00:00:00 | 00:00:00 | 00:00:00 | |
| OM5KV | 2026-09-05 11:52:56 | 45.78029 | 16.51978 | 109° | 113km/h | 11086m | 4.1m/s | -48.3°C | 29.1% | 0hPa | 2.9V | 00:00:00 | 00:00:00 | 00:00:00 | |
| 9A1FER-3 | 2026-09-05 11:52:54 | 45.78055 | 16.51858 | 108° | 117km/h | 11071m | 3.5m/s | -48.1°C | 36.3% | 0hPa | 2.9V | 00:00:00 | 00:48:43 | 00:00:00 | |
| OM5KV | 2026-09-05 11:52:50 | 45.78082 | 16.51738 | 109° | 117km/h | 11056m | 5.7m/s | -48.0°C | 28.6% | 0hPa | 2.9V | 00:00:00 | 00:00:00 | 00:00:00 | |
| 9A1FER-3 | 2026-09-05 11:52:39 | 45.78189 | 16.51255 | 108° | 115km/h | 10994m | 6.3m/s | -47.4°C | 35.3% | 0hPa | 2.9V | 00:00:00 | 00:48:28 | 08:30:00 | |
| OM5KV | 2026-09-05 11:52:38 | 45.78189 | 16.51255 | 108° | 117km/h | 10994m | 6.3m/s | -47.4°C | 28.5% | 0hPa | 2.7V | 00:00:00 | 00:00:00 | 00:00:00 | |
| 9A1FER-3 | 2026-09-05 11:52:24 | 45.78319 | 16.50660 | 107° | 115km/h | 10921m | 5.3m/s | -46.8°C | 34.0% | 0hPa | 2.7V | 00:00:00 | 00:48:13 | 00:00:00 | |
| OM5KV | 2026-09-05 11:52:21 | 45.78336 | 16.50578 | 107° | 119km/h | 10912m | 5.0m/s | -46.7°C | 27.3% | 0hPa | 2.7V | 00:00:00 | 00:00:00 | 00:00:00 | |
| OM5KV | 2026-09-05 11:52:14 | 45.78393 | 16.50296 | 108° | 113km/h | 10877m | 4.6m/s | -46.4°C | 27.8% | 0hPa | 2.7V | 00:00:00 | 00:00:00 | 00:00:00 | |
| OM5KV | 2026-09-05 11:52:13 | 45.78401 | 16.50257 | 108° | 113km/h | 10872m | 5.6m/s | -46.4°C | 28.2% | 0hPa | 2.7V | 00:00:00 | 00:00:00 | 00:00:00 | |
| 9A1FER-3 | 2026-09-05 11:52:09 | 45.78442 | 16.50058 | 107° | 111km/h | 10848m | 4.1m/s | -46.2°C | 36.5% | 0hPa | 2.7V | 00:00:00 | 00:47:58 | 00:00:00 | |
| OM5KV | 2026-09-05 11:52:07 | 45.78451 | 16.50018 | 108° | 115km/h | 10843m | 5.3m/s | -46.2°C | 30.4% | 0hPa | 2.7V | 00:00:00 | 00:00:00 | 00:00:00 | |
| OM5KV | 2026-09-05 11:52:03 | 45.78484 | 16.49863 | 108° | 108km/h | 10825m | 4.6m/s | -46.2°C | 30.7% | 0hPa | 2.7V | 00:00:00 | 00:00:00 | 00:00:00 | |
| OM5KV | 2026-09-05 11:52:02 | 45.78492 | 16.49826 | 107° | 108km/h | 10820m | 5.0m/s | -46.1°C | 30.8% | 0hPa | 2.7V | 00:00:00 | 00:00:00 | 00:00:00 | |
| OM5KV | 2026-09-05 11:51:58 | 45.78519 | 16.49676 | 104° | 111km/h | 10803m | 4.1m/s | -46.0°C | 31.0% | 0hPa | 2.7V | 00:00:00 | 00:00:00 | 00:00:00 | |
| OM5KV | 2026-09-05 11:51:55 | 45.78540 | 16.49554 | 106° | 119km/h | 10789m | 4.7m/s | -45.9°C | 31.1% | 0hPa | 2.7V | 00:00:00 | 00:00:00 | 00:00:00 | |
| 9A1FER-3 | 2026-09-05 11:51:54 | 45.78557 | 16.49472 | 108° | 111km/h | 10780m | 1.5m/s | -45.7°C | 38.4% | 0hPa | 2.7V | 00:00:00 | 00:47:43 | 00:00:00 | |
| OM5KV | 2026-09-05 11:51:49 | 45.78595 | 16.49274 | 103° | 110km/h | 10752m | 5.7m/s | -45.6°C | 31.4% | 0hPa | 2.7V | 00:00:00 | 00:00:00 | 00:00:00 | |
| OM5KV | 2026-09-05 11:51:42 | 45.78640 | 16.49039 | 112° | 113km/h | 10718m | 6.2m/s | -45.3°C | 29.7% | 0hPa | 2.7V | 00:00:00 | 00:00:00 | 00:00:00 | |
| OM5KV | 2026-09-05 11:51:41 | 45.78650 | 16.49002 | 112° | 110km/h | 10712m | 5.4m/s | -45.2°C | 29.8% | 0hPa | 2.7V | 00:00:00 | 00:00:00 | 00:00:00 | |
| OM5KV | 2026-09-05 11:51:40 | 45.78660 | 16.48965 | 111° | 108km/h | 10707m | 3.5m/s | -45.2°C | 29.8% | 0hPa | 2.7V | 00:00:00 | 00:00:00 | 00:00:00 | |
| 9A1FER-3 | 2026-09-05 11:51:39 | 45.78677 | 16.48891 | 107° | 106km/h | 10698m | 5.3m/s | -45.0°C | 36.0% | 0hPa | 2.7V | 00:00:00 | 00:47:28 | 00:00:00 | |
| OM5KV | 2026-09-05 11:51:31 | 45.78723 | 16.48629 | 105° | 104km/h | 10667m | 4.7m/s | -44.8°C | 30.1% | 0hPa | 2.7V | 00:00:00 | 00:00:00 | 00:00:00 | |
| 9A1FER-3 | 2026-09-05 11:51:24 | 45.78775 | 16.48337 | 107° | 104km/h | 10630m | 5.7m/s | -44.4°C | 36.0% | 0hPa | 2.7V | 00:00:00 | 00:47:13 | 00:00:00 | |
| OM5KV | 2026-09-05 11:51:23 | 45.78775 | 16.48337 | 107° | 106km/h | 10630m | 5.7m/s | -44.5°C | 29.7% | 0hPa | 2.7V | 00:00:00 | 00:00:00 | 00:00:00 | |
| OM5KV | 2026-09-05 11:51:20 | 45.78798 | 16.48226 | 106° | 108km/h | 10617m | 5.4m/s | -44.3°C | 29.4% | 0hPa | 2.7V | 00:00:00 | 00:00:00 | 00:00:00 | |
| OM5KV | 2026-09-05 11:51:17 | 45.78818 | 16.48113 | 104° | 108km/h | 10602m | 4.7m/s | -44.2°C | 29.6% | 0hPa | 2.7V | 00:00:00 | 00:00:00 | 00:00:00 | |
| OM5KV | 2026-09-05 11:51:13 | 45.78851 | 16.47934 | 106° | 99km/h | 10579m | 6.7m/s | -44.0°C | 29.6% | 0hPa | 2.7V | 00:00:00 | 00:00:00 | 00:00:00 | |
| OM5KV | 2026-09-05 11:51:11 | 45.78856 | 16.47898 | 104° | 100km/h | 10574m | 4.5m/s | -43.9°C | 29.8% | 0hPa | 2.7V | 00:00:00 | 00:00:00 | 00:00:00 | |
| 9A1FER-3 | 2026-09-05 11:51:09 | 45.78875 | 16.47794 | 105° | 104km/h | 10561m | 6.9m/s | -43.8°C | 35.4% | 0hPa | 2.7V | 00:00:00 | 00:46:58 | 00:00:00 | |
| OM5KV | 2026-09-05 11:51:06 | 45.78887 | 16.47723 | 104° | 104km/h | 10550m | 5.3m/s | -43.8°C | 29.5% | 0hPa | 2.9V | 00:00:00 | 00:00:00 | 00:00:00 | |
| OM5KV | 2026-09-05 11:51:05 | 45.78893 | 16.47686 | 105° | 108km/h | 10545m | 5.3m/s | -43.7°C | 29.2% | 0hPa | 2.9V | 00:00:00 | 00:00:00 | 00:00:00 | |
| OM5KV | 2026-09-05 11:51:00 | 45.78930 | 16.47459 | 103° | 102km/h | 10517m | 4.7m/s | -43.5°C | 29.2% | 0hPa | 2.9V | 00:00:00 | 00:00:00 | 00:00:00 | |
| OM5KV | 2026-09-05 11:50:56 | 45.78945 | 16.47352 | 101° | 99km/h | 10502m | 3.7m/s | -43.3°C | 28.9% | 0hPa | 2.9V | 00:00:00 | 00:00:00 | 00:00:00 | |
| 9A1FER-3 | 2026-09-05 11:50:54 | 45.78959 | 16.47247 | 102° | 99km/h | 10488m | 5.5m/s | -43.1°C | 34.3% | 0hPa | 2.9V | 00:00:00 | 00:46:43 | 00:00:00 | |
| OM5KV | 2026-09-05 11:50:48 | 45.78988 | 16.47072 | 105° | 102km/h | 10466m | 3.2m/s | -43.0°C | 29.8% | 0hPa | 2.9V | 00:00:00 | 00:00:00 | 00:00:00 | |
| OM5KV | 2026-09-05 11:50:47 | 45.78994 | 16.47036 | 106° | 102km/h | 10462m | 5.1m/s | -43.0°C | 30.3% | 0hPa | 2.9V | 00:00:00 | 00:00:00 | 00:00:00 | |
| OM5KV | 2026-09-05 11:50:43 | 45.79018 | 16.46895 | 102° | 99km/h | 10446m | 4.1m/s | -42.9°C | 32.6% | 0hPa | 2.9V | 00:00:00 | 00:00:00 | 00:00:00 | |
| OM5KV | 2026-09-05 11:50:40 | 45.79030 | 16.46793 | 99° | 93km/h | 10433m | 4.6m/s | -42.8°C | 32.8% | 0hPa | 2.9V | 00:00:00 | 00:00:00 | 00:00:00 | |
| 9A1FER-3 | 2026-09-05 11:50:39 | 45.79037 | 16.46727 | 100° | 97km/h | 10427m | 3.0m/s | -42.7°C | 38.5% | 0hPa | 2.9V | 00:00:00 | 00:46:28 | 00:00:00 | |
| OM5KV | 2026-09-05 11:50:37 | 45.79041 | 16.46694 | 102° | 91km/h | 10423m | 4.5m/s | -42.7°C | 0% | 0hPa | 2.9V | 00:00:00 | 00:00:00 | 00:00:00 | |
| OM5KV | 2026-09-05 11:50:34 | 45.79056 | 16.46593 | 104° | 99km/h | 10410m | 3.4m/s | -42.6°C | 31.8% | 0hPa | 2.9V | 00:00:00 | 00:00:00 | 00:00:00 | |
| OM5KV | 2026-09-05 11:50:33 | 45.79062 | 16.46559 | 103° | 99km/h | 10406m | 4.3m/s | -42.5°C | 31.5% | 0hPa | 2.9V | 00:00:00 | 00:00:00 | 00:00:00 | |
| OM5KV | 2026-09-05 11:50:31 | 45.79072 | 16.46488 | 103° | 100km/h | 10398m | 4.7m/s | -42.5°C | 0% | 0hPa | 2.9V | 00:00:00 | 00:00:00 | 00:00:00 | |
| OM5KV | 2026-09-05 11:50:26 | 45.79098 | 16.46312 | 104° | 97km/h | 10378m | 2.6m/s | -42.3°C | 0% | 0hPa | 2.9V | 00:00:00 | 00:00:00 | 00:00:00 | |
| 9A1FER-3 | 2026-09-05 11:50:24 | 45.79113 | 16.46212 | 102° | 93km/h | 10366m | 3.8m/s | -42.1°C | 38.6% | 0hPa | 2.9V | 00:00:00 | 00:46:13 | 08:30:00 | |
| OM5KV | 2026-09-05 11:50:23 | 45.79113 | 16.46212 | 103° | 91km/h | 10366m | 3.9m/s | -42.2°C | 32.4% | 0hPa | 2.7V | 00:00:00 | 00:00:00 | 00:00:00 | |
| OM5KV | 2026-09-05 11:50:19 | 45.79134 | 16.46080 | 103° | 97km/h | 10351m | 4.3m/s | -42.0°C | 0% | 0hPa | 2.7V | 00:00:00 | 00:00:00 | 00:00:00 | |
| OM5KV | 2026-09-05 11:50:16 | 45.79148 | 16.45979 | 102° | 95km/h | 10337m | 4.8m/s | -41.9°C | 0% | 0hPa | 2.7V | 00:00:00 | 00:00:00 | 00:00:00 | |
| OM5KV | 2026-09-05 11:50:13 | 45.79166 | 16.45845 | 102° | 91km/h | 10318m | 6.1m/s | -41.8°C | 32.3% | 0hPa | 2.7V | 00:00:00 | 00:00:00 | 00:00:00 | |
| OM5KV | 2026-09-05 11:50:11 | 45.79171 | 16.45813 | 104° | 91km/h | 10312m | 5.1m/s | 0°C | 0% | 0hPa | 2.7V | 00:00:00 | 00:00:00 | 00:00:00 | |
| 9A1FER-3 | 2026-09-05 11:50:09 | 45.79188 | 16.45715 | 106° | 97km/h | 10299m | 5.0m/s | -41.5°C | 40.6% | 0hPa | 2.7V | 00:00:00 | 00:45:58 | 00:00:00 | |
| OM5KV | 2026-09-05 11:50:08 | 45.79188 | 16.45715 | 107° | 95km/h | 10299m | 5.0m/s | 0°C | 0% | 0hPa | 2.7V | 00:00:00 | 00:00:00 | 00:00:00 | |
| OM5KV | 2026-09-05 11:50:05 | 45.79210 | 16.45614 | 107° | 97km/h | 10288m | 6.1m/s | 0°C | 0% | 0hPa | 2.7V | 00:00:00 | 00:00:00 | 00:00:00 | |
| OM5KV | 2026-09-05 11:50:01 | 45.79235 | 16.45476 | 105° | 97km/h | 10270m | 4.1m/s | -41.3°C | 34.7% | 0hPa | 2.7V | 00:00:00 | 00:00:00 | 00:00:00 | |
| OM5KV | 2026-09-05 11:49:59 | 45.79245 | 16.45409 | 103° | 95km/h | 10262m | 3.8m/s | 0°C | 0% | 0hPa | 2.7V | 00:00:00 | 00:00:00 | 00:00:00 | |
| OM5KV | 2026-09-05 11:49:56 | 45.79261 | 16.45309 | 105° | 95km/h | 10248m | 5.4m/s | -41.1°C | 0% | 0hPa | 2.7V | 00:00:00 | 00:00:00 | 00:00:00 | |
| 9A1FER-3 | 2026-09-05 11:49:54 | 45.79279 | 16.45208 | 105° | 97km/h | 10235m | 3.5m/s | -40.9°C | 40.2% | 0hPa | 2.7V | 00:00:00 | 00:45:43 | 00:00:00 | |
| OM5KV | 2026-09-05 11:49:50 | 45.79296 | 16.45108 | 105° | 97km/h | 10221m | 5.3m/s | -40.8°C | 0% | 0hPa | 2.7V | 00:00:00 | 00:00:00 | 00:00:00 | |
| OM5KV | 2026-09-05 11:49:46 | 45.79322 | 16.44972 | 107° | 99km/h | 10203m | 4.9m/s | 0°C | 0% | 0hPa | 2.7V | 00:00:00 | 00:00:00 | 00:00:00 | |
| OM5KV | 2026-09-05 11:49:43 | 45.79342 | 16.44871 | 106° | 95km/h | 10191m | 3.5m/s | -40.5°C | 0% | 0hPa | 2.7V | 00:00:00 | 00:00:00 | 00:00:00 | |
| 9A1FER-3 | 2026-09-05 11:49:39 | 45.79371 | 16.44704 | 104° | 95km/h | 10171m | 5.0m/s | -40.3°C | 38.4% | 0hPa | 2.7V | 00:00:00 | 00:45:28 | 00:00:00 | |
| OM5KV | 2026-09-05 11:49:33 | 45.79402 | 16.44538 | 106° | 97km/h | 10151m | 3.1m/s | -40.1°C | 0% | 0hPa | 2.9V | 00:00:00 | 00:00:00 | 00:00:00 | |
| OM5KV | 2026-09-05 11:49:27 | 45.79443 | 16.44336 | 107° | 95km/h | 10125m | 5.4m/s | -39.9°C | 0% | 0hPa | 2.9V | 00:00:00 | 00:00:00 | 00:00:00 | |
| 9A1FER-3 | 2026-09-05 11:49:24 | 45.79466 | 16.44206 | 104° | 97km/h | 10107m | 3.6m/s | -39.7°C | 35.6% | 0hPa | 2.9V | 00:00:00 | 00:45:13 | 00:00:00 | |
| OM5KV | 2026-09-05 11:49:22 | 45.79471 | 16.44173 | 105° | 95km/h | 10103m | 5.0m/s | -39.7°C | 0% | 0hPa | 2.9V | 00:00:00 | 00:00:00 | 00:00:00 | |
| OM5KV | 2026-09-05 11:49:17 | 45.79502 | 16.44006 | 106° | 97km/h | 10086m | 4.1m/s | 0°C | 0% | 0hPa | 2.9V | 00:00:00 | 00:00:00 | 00:00:00 | |
| OM5KV | 2026-09-05 11:49:11 | 45.79539 | 16.43803 | 107° | 97km/h | 10062m | 5.2m/s | 0°C | 0% | 0hPa | 2.9V | 00:00:00 | 00:00:00 | 00:00:00 | |
| 9A1FER-3 | 2026-09-05 11:49:09 | 45.79561 | 16.43702 | 108° | 95km/h | 10051m | 5.0m/s | -39.2°C | 35.1% | 0hPa | 2.9V | 00:00:00 | 00:44:58 | 00:00:00 | |
| 9A1FER-3 | 2026-09-05 11:48:54 | 45.79657 | 16.43203 | 107° | 93km/h | 9990m | 5.2m/s | -38.7°C | 35.4% | 0hPa | 2.9V | 00:00:00 | 00:44:43 | 00:00:00 | |
| 9A1FER-3 | 2026-09-05 11:48:39 | 45.79758 | 16.42718 | 107° | 91km/h | 9920m | 3.1m/s | -38.1°C | 35.2% | 0hPa | 2.7V | 00:00:00 | 00:44:28 | 00:00:00 | |
| 9A1FER-3 | 2026-09-05 11:48:24 | 45.79856 | 16.42243 | 106° | 89km/h | 9864m | 3.7m/s | -37.6°C | 31.4% | 0hPa | 2.7V | 00:00:00 | 00:44:13 | 00:00:00 | |
| 9A1FER-3 | 2026-09-05 11:48:09 | 45.79954 | 16.41777 | 105° | 88km/h | 9805m | 4.6m/s | -37.0°C | 26.9% | 0hPa | 2.7V | 00:00:00 | 00:43:58 | 08:30:00 | |
| 9A1FER-3 | 2026-09-05 11:47:54 | 45.80053 | 16.41329 | 108° | 88km/h | 9743m | 4.0m/s | -36.5°C | 26.0% | 0hPa | 2.9V | 00:00:00 | 00:43:43 | 00:00:00 | |
| 9A1FER-3 | 2026-09-05 11:47:39 | 45.80159 | 16.40875 | 110° | 88km/h | 9685m | 3.7m/s | -36.0°C | 26.2% | 0hPa | 2.9V | 00:00:00 | 00:43:28 | 00:00:00 | |
| 9A1FER-3 | 2026-09-05 11:47:24 | 45.80264 | 16.40427 | 109° | 88km/h | 9626m | 3.8m/s | -35.5°C | 27.7% | 0hPa | 2.9V | 00:00:00 | 00:43:13 | 00:00:00 | |
| 9A1FER-3 | 2026-09-05 11:47:09 | 45.80363 | 16.39975 | 110° | 88km/h | 9568m | 4.2m/s | -35.1°C | 27.2% | 0hPa | 2.7V | 00:00:00 | 00:42:58 | 00:00:00 | |
| 9A1FER-3 | 2026-09-05 11:46:54 | 45.80466 | 16.39519 | 106° | 89km/h | 9510m | 5.1m/s | -34.7°C | 25.8% | 0hPa | 2.7V | 00:00:00 | 00:42:43 | 00:00:00 | |
| 9A1FER-3 | 2026-09-05 11:46:39 | 45.80575 | 16.39058 | 110° | 88km/h | 9446m | 4.7m/s | -34.1°C | 24.9% | 0hPa | 2.7V | 00:00:00 | 00:42:28 | 00:00:00 | |
| 9A1FER-3 | 2026-09-05 11:46:24 | 45.80689 | 16.38608 | 109° | 88km/h | 9381m | 4.3m/s | -33.9°C | 27.7% | 0hPa | 2.7V | 00:00:00 | 00:42:13 | 00:00:00 | |
| 9A1FER-3 | 2026-09-05 11:46:09 | 45.80792 | 16.38157 | 113° | 86km/h | 9313m | 4.5m/s | -33.4°C | 20.7% | 0hPa | 2.7V | 00:00:00 | 00:41:58 | 00:00:00 | |
| 9A1FER-3 | 2026-09-05 11:45:51 | 45.80927 | 16.37619 | 110° | 91km/h | 9241m | 3.6m/s | -33.2°C | 25.7% | 0hPa | 2.7V | 00:00:00 | 00:41:40 | 08:30:00 | |
| 9A1FER-3 | 2026-09-05 11:45:36 | 45.81050 | 16.37156 | 111° | 89km/h | 9173m | 7.1m/s | -33.0°C | 60.5% | 0hPa | 2.9V | 00:00:00 | 00:41:25 | 00:00:00 | |
| 9A1FER-3 | 2026-09-05 11:45:21 | 45.81151 | 16.36685 | 103° | 89km/h | 9096m | 5.2m/s | -32.7°C | 72.2% | 0hPa | 2.9V | 00:00:00 | 00:41:10 | 00:00:00 | |
| 9A1FER-3 | 2026-09-05 11:45:06 | 45.81229 | 16.36212 | 105° | 88km/h | 9027m | 4.3m/s | -32.1°C | 71.7% | 0hPa | 2.9V | 00:00:00 | 00:40:55 | 00:00:00 | |
| 9A1FER-3 | 2026-09-05 11:44:51 | 45.81308 | 16.35747 | 101° | 88km/h | 8954m | 5.3m/s | -31.5°C | 68.7% | 0hPa | 2.9V | 00:00:00 | 00:40:40 | 00:00:00 | |
| 9A1FER-3 | 2026-09-05 11:44:36 | 45.81376 | 16.35278 | 100° | 91km/h | 8880m | 4.9m/s | -30.8°C | 69.7% | 0hPa | 2.9V | 00:00:00 | 00:40:25 | 00:00:00 | |
| 9A1FER-3 | 2026-09-05 11:44:19 | 45.81449 | 16.34727 | 99° | 89km/h | 8793m | 6.6m/s | -30.1°C | 77.3% | 0hPa | 2.9V | 00:00:00 | 00:40:08 | 00:00:00 | |
| 9A1FER-3 | 2026-09-05 11:43:49 | 45.81568 | 16.33776 | 99° | 88km/h | 8652m | 5.2m/s | -28.9°C | 76.1% | 0hPa | 2.7V | 00:00:00 | 00:39:38 | 00:00:00 | |
| 9A1FER-3 | 2026-09-05 11:43:34 | 45.81635 | 16.33313 | 99° | 88km/h | 8575m | 4.3m/s | -28.2°C | 76.4% | 0hPa | 2.7V | 00:00:00 | 00:39:23 | 08:30:00 | |
| 9A1FER-3 | 2026-09-05 11:43:19 | 45.81687 | 16.32844 | 103° | 88km/h | 8497m | 4.6m/s | -27.6°C | 75.4% | 0hPa | 2.9V | 00:00:00 | 00:39:08 | 00:00:00 | |
| 9A1FER-3 | 2026-09-05 11:43:04 | 45.81730 | 16.32373 | 91° | 88km/h | 8425m | 3.4m/s | -27.1°C | 85.7% | 0hPa | 2.9V | 00:00:00 | 00:38:53 | 00:00:00 | |
| 9A1FER-3 | 2026-09-05 11:42:49 | 45.81753 | 16.31902 | 94° | 86km/h | 8351m | 6.0m/s | -26.4°C | 82.2% | 0hPa | 2.9V | 00:00:00 | 00:38:38 | 00:00:00 | |
| 9A1FER-3 | 2026-09-05 11:42:34 | 45.81771 | 16.31441 | 96° | 86km/h | 8277m | 4.7m/s | -25.7°C | 79.9% | 0hPa | 2.9V | 00:00:00 | 00:38:23 | 00:00:00 | |
| 9A1FER-3 | 2026-09-05 11:42:19 | 45.81808 | 16.30980 | 94° | 88km/h | 8205m | 5.8m/s | -25.1°C | 76.5% | 0hPa | 2.9V | 00:00:00 | 00:38:08 | 00:00:00 | |
| 9A1FER-3 | 2026-09-05 11:42:04 | 45.81831 | 16.30502 | 97° | 89km/h | 8127m | 5.1m/s | -24.5°C | 76.0% | 0hPa | 2.9V | 00:00:00 | 00:37:53 | 00:00:00 | |
| 9A1FER-3 | 2026-09-05 11:41:49 | 45.81865 | 16.30015 | 96° | 89km/h | 8051m | 3.0m/s | -24.0°C | 77.5% | 0hPa | 2.9V | 00:00:00 | 00:37:38 | 00:00:00 | |
| 9A1FER-3 | 2026-09-05 11:41:34 | 45.81903 | 16.29527 | 98° | 89km/h | 7975m | 6.7m/s | -23.4°C | 75.6% | 0hPa | 2.9V | 00:00:00 | 00:37:23 | 00:00:00 | |
| 9A1FER-3 | 2026-09-05 11:41:19 | 45.81938 | 16.29048 | 97° | 88km/h | 7906m | 4.0m/s | -22.9°C | 82.3% | 0hPa | 2.9V | 00:00:00 | 00:37:08 | 08:30:00 | |
| 9A1FER-3 | 2026-09-05 11:41:04 | 45.81971 | 16.28575 | 95° | 84km/h | 7829m | 4.3m/s | -22.3°C | 85.5% | 0hPa | 2.9V | 00:00:00 | 00:36:53 | 00:00:00 | |
| 9A1FER-3 | 2026-09-05 11:40:49 | 45.82008 | 16.28122 | 93° | 84km/h | 7757m | 4.6m/s | -21.8°C | 85.9% | 0hPa | 2.9V | 00:00:00 | 00:36:38 | 00:00:00 | |
| 9A1FER-3 | 2026-09-05 11:40:34 | 45.82040 | 16.27667 | 100° | 84km/h | 7681m | 3.8m/s | -21.3°C | 85.9% | 0hPa | 2.9V | 00:00:00 | 00:36:23 | 00:00:00 | |
| 9A1FER-3 | 2026-09-05 11:40:19 | 45.82089 | 16.27217 | 98° | 86km/h | 7608m | 5.1m/s | -20.8°C | 87.1% | 0hPa | 2.9V | 00:00:00 | 00:36:08 | 00:00:00 | |
| 9A1FER-3 | 2026-09-05 11:40:04 | 45.82136 | 16.26754 | 98° | 84km/h | 7532m | 6.0m/s | -20.3°C | 85.4% | 0hPa | 2.9V | 00:00:00 | 00:35:53 | 00:00:00 | |
| 9A1FER-3 | 2026-09-05 11:39:49 | 45.82190 | 16.26306 | 99° | 91km/h | 7452m | 4.1m/s | -19.7°C | 83.8% | 0hPa | 2.9V | 00:00:00 | 00:35:38 | 00:00:00 | |
| 9A1FER-3 | 2026-09-05 11:39:34 | 45.82254 | 16.25825 | 106° | 86km/h | 7379m | 5.1m/s | -19.2°C | 83.4% | 0hPa | 2.9V | 00:00:00 | 00:35:23 | 00:00:00 | |
| 9A1FER-3 | 2026-09-05 11:39:19 | 45.82337 | 16.25374 | 102° | 88km/h | 7308m | 3.5m/s | -18.6°C | 81.2% | 0hPa | 2.9V | 00:00:00 | 00:35:08 | 00:00:00 | |
| 9A1FER-3 | 2026-09-05 11:39:04 | 45.82417 | 16.24909 | 105° | 88km/h | 7232m | 5.4m/s | -18.0°C | 76.0% | 0hPa | 2.9V | 00:00:00 | 00:34:53 | 08:30:00 | |
| 9A1FER-3 | 2026-09-05 11:38:49 | 45.82500 | 16.24451 | 105° | 84km/h | 7149m | 5.2m/s | -17.8°C | 83.0% | 0hPa | 2.9V | 00:00:00 | 00:34:38 | 00:00:00 | |
| 9A1FER-3 | 2026-09-05 11:38:34 | 45.82576 | 16.24008 | 104° | 78km/h | 7070m | 7.1m/s | -17.2°C | 85.8% | 0hPa | 2.9V | 00:00:00 | 00:34:23 | 00:00:00 | |
| 9A1FER-3 | 2026-09-05 11:38:19 | 45.82639 | 16.23588 | 101° | 78km/h | 6998m | 5.6m/s | -17.2°C | 87.7% | 0hPa | 2.9V | 00:00:00 | 00:34:08 | 00:00:00 | |
| 9A1FER-3 | 2026-09-05 11:38:04 | 45.82678 | 16.23160 | 97° | 78km/h | 6914m | 5.6m/s | -17.0°C | 69.5% | 0hPa | 2.9V | 00:00:00 | 00:33:53 | 00:00:00 | |
| 9A1FER-3 | 2026-09-05 11:37:49 | 45.82692 | 16.22733 | 87° | 75km/h | 6829m | 4.4m/s | -16.9°C | 57.4% | 0hPa | 2.9V | 00:00:00 | 00:33:38 | 00:00:00 | |
| 9A1FER-3 | 2026-09-05 11:37:34 | 45.82681 | 16.22330 | 86° | 73km/h | 6749m | 2.1m/s | -16.5°C | 33.6% | 0hPa | 2.9V | 00:00:00 | 00:33:23 | 00:00:00 | |
| 9A1FER-3 | 2026-09-05 11:37:19 | 45.82669 | 16.21933 | 93° | 75km/h | 6675m | 5.0m/s | -16.0°C | 47.3% | 0hPa | 2.9V | 00:00:00 | 00:33:08 | 00:00:00 | |
| 9A1FER-3 | 2026-09-05 11:37:04 | 45.82653 | 16.21525 | 86° | 73km/h | 6595m | 5.7m/s | -15.4°C | 46.9% | 0hPa | 2.9V | 00:00:00 | 00:32:53 | 00:00:00 | |
| 9A1FER-3 | 2026-09-05 11:36:49 | 45.82644 | 16.21134 | 84° | 73km/h | 6524m | 5.0m/s | -14.9°C | 19.7% | 0hPa | 2.9V | 00:00:00 | 00:32:38 | 08:30:00 | |
| 9A1FER-3 | 2026-09-05 11:36:34 | 45.82625 | 16.20741 | 86° | 75km/h | 6443m | 5.8m/s | -14.5°C | 26.3% | 0hPa | 2.9V | 00:00:00 | 00:32:23 | 00:00:00 | |
| 9A1FER-3 | 2026-09-05 11:36:19 | 45.82613 | 16.20339 | 89° | 75km/h | 6363m | 4.0m/s | -13.9°C | 27.7% | 0hPa | 2.9V | 00:00:00 | 00:32:08 | 00:00:00 | |
| 9A1FER-3 | 2026-09-05 11:36:04 | 45.82614 | 16.19932 | 87° | 77km/h | 6279m | 6.0m/s | -13.3°C | 28.0% | 0hPa | 2.9V | 00:00:00 | 00:31:53 | 00:00:00 | |
| 9A1FER-3 | 2026-09-05 11:35:49 | 45.82618 | 16.19520 | 89° | 77km/h | 6204m | 3.9m/s | -12.7°C | 27.2% | 0hPa | 2.9V | 00:00:00 | 00:31:38 | 00:00:00 | |
| 9A1FER-3 | 2026-09-05 11:35:34 | 45.82616 | 16.19106 | 91° | 80km/h | 6130m | 4.6m/s | -12.1°C | 26.0% | 0hPa | 2.9V | 00:00:00 | 00:31:23 | 00:00:00 | |
| 9A1FER-3 | 2026-09-05 11:35:19 | 45.82618 | 16.18670 | 93° | 80km/h | 6058m | 6.0m/s | -11.5°C | 22.6% | 0hPa | 2.9V | 00:00:00 | 00:31:08 | 00:00:00 | |
| 9A1FER-3 | 2026-09-05 11:35:04 | 45.82618 | 16.18239 | 93° | 73km/h | 5982m | 3.8m/s | -11.3°C | 20.5% | 0hPa | 2.9V | 00:00:00 | 00:30:53 | 00:00:00 | |
| 9A1FER-3 | 2026-09-05 11:34:49 | 45.82634 | 16.17846 | 92° | 71km/h | 5904m | 4.7m/s | -10.8°C | 29.3% | 0hPa | 2.9V | 00:00:00 | 00:30:38 | 00:00:00 | |
| 9A1FER-3 | 2026-09-05 11:34:19 | 45.82625 | 16.17069 | 88° | 73km/h | 5755m | 5.0m/s | -9.5°C | 24.2% | 0hPa | 2.9V | 00:00:00 | 00:30:08 | 00:00:00 | |
| 9A1FER-3 | 2026-09-05 11:34:04 | 45.82625 | 16.16677 | 87° | 77km/h | 5675m | 3.7m/s | -9.2°C | 21.6% | 0hPa | 2.9V | 00:00:00 | 00:29:53 | 00:00:00 | |
| 9A1FER-3 | 2026-09-05 11:33:49 | 45.82618 | 16.16262 | 90° | 77km/h | 5601m | 3.8m/s | -8.9°C | 20.0% | 0hPa | 2.9V | 00:00:00 | 00:29:38 | 00:00:00 | |
| 9A1FER-3 | 2026-09-05 11:33:34 | 45.82625 | 16.15849 | 88° | 75km/h | 5527m | 2.8m/s | -8.2°C | 19.5% | 0hPa | 2.9V | 00:00:00 | 00:29:23 | 00:00:00 | |
| 9A1FER-3 | 2026-09-05 11:33:19 | 45.82622 | 16.15439 | 92° | 78km/h | 5455m | 4.7m/s | -7.6°C | 19.2% | 0hPa | 2.9V | 00:00:00 | 00:29:08 | 00:00:00 | |
| 9A1FER-3 | 2026-09-05 11:32:49 | 45.82627 | 16.14587 | 89° | 77km/h | 5304m | 5.1m/s | -6.8°C | 24.3% | 0hPa | 2.9V | 00:00:00 | 00:28:38 | 00:00:00 | |
| 9A1FER-3 | 2026-09-05 11:32:32 | 45.82612 | 16.14111 | 84° | 77km/h | 5213m | 5.1m/s | -5.9°C | 25.2% | 0hPa | 2.9V | 00:00:00 | 00:28:21 | 00:00:00 | |
| 9A1FER-3 | 2026-09-05 11:32:17 | 45.82581 | 16.13695 | 85° | 78km/h | 5132m | 4.9m/s | -5.5°C | 39.8% | 0hPa | 2.9V | 00:00:00 | 00:28:06 | 08:30:00 | |
| 9A1FER-3 | 2026-09-05 11:32:02 | 45.82554 | 16.13277 | 87° | 78km/h | 5047m | 6.4m/s | -5.4°C | 62.7% | 0hPa | 2.9V | 00:00:00 | 00:27:51 | 00:00:00 | |
| 9A1FER-3 | 2026-09-05 11:31:47 | 45.82521 | 16.12857 | 83° | 71km/h | 4969m | 3.8m/s | -4.7°C | 66.5% | 0hPa | 2.9V | 00:00:00 | 00:27:36 | 00:00:00 | |
| 9A1FER-3 | 2026-09-05 11:31:32 | 45.82475 | 16.12473 | 78° | 73km/h | 4892m | 3.3m/s | -4.1°C | 65.9% | 0hPa | 2.9V | 00:00:00 | 00:27:21 | 00:00:00 | |
| 9A1FER-3 | 2026-09-05 11:31:17 | 45.82435 | 16.12080 | 88° | 75km/h | 4813m | 5.6m/s | -3.4°C | 65.7% | 0hPa | 2.9V | 00:00:00 | 00:27:06 | 00:00:00 | |
| 9A1FER-3 | 2026-09-05 11:31:02 | 45.82403 | 16.11675 | 88° | 71km/h | 4745m | 5.2m/s | -3.1°C | 70.8% | 0hPa | 2.9V | 00:00:00 | 00:26:51 | 00:00:00 | |
| 9A1FER-3 | 2026-09-05 11:30:47 | 45.82382 | 16.11286 | 82° | 66km/h | 4665m | 5.5m/s | -2.6°C | 73.2% | 0hPa | 2.9V | 00:00:00 | 00:26:36 | 00:00:00 | |
| 9A1FER-3 | 2026-09-05 11:30:32 | 45.82368 | 16.10929 | 85° | 64km/h | 4580m | 4.3m/s | -1.9°C | 71.9% | 0hPa | 2.9V | 00:00:00 | 00:26:21 | 00:00:00 | |
| 9A1FER-3 | 2026-09-05 11:30:19 | 45.82342 | 16.10590 | 82° | 62km/h | 4502m | 5.4m/s | -1.2°C | 69.5% | 0hPa | 2.9V | 00:00:00 | 00:26:06 | 00:00:00 | |
| 9A1FER-3 | 2026-09-05 11:30:02 | 45.82318 | 16.10259 | 83° | 62km/h | 4419m | 4.5m/s | -0.4°C | 65.9% | 0hPa | 2.9V | 00:00:00 | 00:25:51 | 08:30:00 | |
| 9A1FER-3 | 2026-09-05 11:29:47 | 45.82294 | 16.09929 | 82° | 62km/h | 4335m | 4.8m/s | 0.3°C | 65.1% | 0hPa | 2.9V | 00:00:00 | 00:25:36 | 00:00:00 | |
| 9A1FER-3 | 2026-09-05 11:29:32 | 45.82263 | 16.09597 | 83° | 60km/h | 4265m | 4.3m/s | 0.8°C | 63.6% | 0hPa | 2.9V | 00:00:00 | 00:25:21 | 00:00:00 | |
| 9A1FER-3 | 2026-09-05 11:29:17 | 45.82230 | 16.09278 | 84° | 62km/h | 4192m | 6.6m/s | 1.4°C | 67.9% | 0hPa | 2.9V | 00:00:00 | 00:25:06 | 00:00:00 | |
| 9A1FER-3 | 2026-09-05 11:29:02 | 45.82205 | 16.08947 | 82° | 58km/h | 4112m | 5.6m/s | 2.1°C | 65.9% | 0hPa | 2.9V | 00:00:00 | 00:24:51 | 00:00:00 | |
| 9A1FER-3 | 2026-09-05 11:28:47 | 45.82175 | 16.08630 | 83° | 58km/h | 4025m | 7.0m/s | 2.8°C | 65.4% | 0hPa | 2.9V | 00:00:00 | 00:24:36 | 00:00:00 | |
| 9A1FER-3 | 2026-09-05 11:28:32 | 45.82163 | 16.08315 | 91° | 58km/h | 3944m | 6.9m/s | 3.4°C | 70.2% | 0hPa | 2.9V | 00:00:00 | 00:24:21 | 00:00:00 | |
| 9A1FER-3 | 2026-09-05 11:28:17 | 45.82162 | 16.08003 | 85° | 57km/h | 3867m | 4.7m/s | 4.0°C | 70.6% | 0hPa | 2.9V | 00:00:00 | 00:24:06 | 00:00:00 | |
| 9A1FER-3 | 2026-09-05 11:28:02 | 45.82155 | 16.07694 | 87° | 57km/h | 3778m | 7.6m/s | 4.8°C | 70.3% | 0hPa | 2.9V | 00:00:00 | 00:23:51 | 00:00:00 | |
| 9A1FER-3 | 2026-09-05 11:27:47 | 45.82157 | 16.07390 | 91° | 58km/h | 3689m | 4.8m/s | 5.5°C | 68.7% | 0hPa | 2.9V | 00:00:00 | 00:23:36 | 08:30:00 | |
| 9A1FER-3 | 2026-09-05 11:27:32 | 45.82165 | 16.07076 | 89° | 55km/h | 3608m | 7.0m/s | 5.9°C | 72.3% | 0hPa | 2.9V | 00:00:00 | 00:23:21 | 00:00:00 | |
| 9A1FER-3 | 2026-09-05 11:27:17 | 45.82176 | 16.06780 | 101° | 55km/h | 3521m | 5.3m/s | 6.7°C | 68.8% | 0hPa | 2.9V | 00:00:00 | 00:23:06 | 00:00:00 | |
| 9A1FER-3 | 2026-09-05 11:27:02 | 45.82176 | 16.06481 | 86° | 58km/h | 3443m | 6.4m/s | 7.5°C | 65.3% | 0hPa | 2.9V | 00:00:00 | 00:22:51 | 00:00:00 | |
| 9A1FER-3 | 2026-09-05 11:26:47 | 45.82164 | 16.06165 | 89° | 58km/h | 3370m | 6.8m/s | 8.0°C | 66.0% | 0hPa | 2.9V | 00:00:00 | 00:22:36 | 00:00:00 | |
| 9A1FER-3 | 2026-09-05 11:26:32 | 45.82140 | 16.05852 | 84° | 58km/h | 3288m | 6.8m/s | 8.6°C | 67.4% | 0hPa | 2.9V | 00:00:00 | 00:22:21 | 00:00:00 | |
| 9A1FER-3 | 2026-09-05 11:26:17 | 45.82106 | 16.05541 | 81° | 57km/h | 3209m | 4.8m/s | 8.8°C | 40.5% | 0hPa | 2.9V | 00:00:00 | 00:22:06 | 00:00:00 | |
| 9A1FER-3 | 2026-09-05 11:26:02 | 45.82064 | 16.05239 | 82° | 51km/h | 3135m | 6.1m/s | 8.0°C | 55.6% | 0hPa | 2.9V | 00:00:00 | 00:21:51 | 00:00:00 | |
| 9A1FER-3 | 2026-09-05 11:25:47 | 45.82017 | 16.04967 | 76° | 55km/h | 3050m | 5.1m/s | 7.8°C | 65.8% | 0hPa | 2.9V | 00:00:00 | 00:21:36 | 00:00:00 | |
| 9A1FER-3 | 2026-09-05 11:25:32 | 45.81968 | 16.04674 | 74° | 53km/h | 2979m | 3.3m/s | 7.7°C | 72.8% | 0hPa | 2.9V | 00:00:00 | 00:21:21 | 08:30:00 | |
| 9A1FER-3 | 2026-09-05 11:25:17 | 45.81910 | 16.04407 | 67° | 46km/h | 2901m | 6.3m/s | 7.7°C | 81.8% | 0hPa | 2.9V | 00:00:00 | 00:21:06 | 00:00:00 | |
| 9A1FER-3 | 2026-09-05 11:25:02 | 45.81857 | 16.04170 | 73° | 46km/h | 2826m | 6.2m/s | 8.3°C | 81.4% | 0hPa | 2.9V | 00:00:00 | 00:20:51 | 00:00:00 | |
| 9A1FER-3 | 2026-09-05 11:24:47 | 45.81810 | 16.03936 | 69° | 40km/h | 2750m | 7.0m/s | 8.8°C | 80.4% | 0hPa | 2.9V | 00:00:00 | 00:20:36 | 00:00:00 | |
| 9A1FER-3 | 2026-09-05 11:24:32 | 45.81766 | 16.03725 | 81° | 42km/h | 2672m | 3.1m/s | 9.0°C | 84.6% | 0hPa | 2.9V | 00:00:00 | 00:20:21 | 00:00:00 | |
| 9A1FER-3 | 2026-09-05 11:24:17 | 45.81722 | 16.03508 | 70° | 40km/h | 2598m | 3.6m/s | 9.6°C | 84.0% | 0hPa | 2.9V | 00:00:00 | 00:20:06 | 00:00:00 | |
| 9A1FER-3 | 2026-09-05 11:24:02 | 45.81684 | 16.03301 | 83° | 37km/h | 2526m | 2.9m/s | 9.7°C | 87.4% | 0hPa | 2.9V | 00:00:00 | 00:19:51 | 00:00:00 | |
| 9A1FER-3 | 2026-09-05 11:23:47 | 45.81661 | 16.03107 | 80° | 37km/h | 2463m | 3.2m/s | 9.9°C | 88.3% | 0hPa | 2.9V | 00:00:00 | 00:19:36 | 00:00:00 | |
| 9A1FER-3 | 2026-09-05 11:23:32 | 45.81618 | 16.02915 | 78° | 27km/h | 2393m | 5.7m/s | 10.3°C | 87.4% | 0hPa | 2.9V | 00:00:00 | 00:19:21 | 00:00:00 | |
| 9A1FER-3 | 2026-09-05 11:23:17 | 45.81582 | 16.02773 | 76° | 26km/h | 2314m | 6.2m/s | 11.0°C | 86.2% | 0hPa | 2.9V | 00:00:00 | 00:19:06 | 08:30:00 | |
| 9A1FER-3 | 2026-09-05 11:23:02 | 45.81542 | 16.02647 | 74° | 33km/h | 2241m | 5.9m/s | 11.6°C | 83.8% | 0hPa | 2.9V | 00:00:00 | 00:18:51 | 00:00:00 | |
| 9A1FER-3 | 2026-09-05 11:22:47 | 45.81501 | 16.02479 | 70° | 29km/h | 2174m | 4.0m/s | 12.2°C | 82.0% | 0hPa | 2.9V | 00:00:00 | 00:18:36 | 00:00:00 | |
| 9A1FER-3 | 2026-09-05 11:22:32 | 45.81465 | 16.02332 | 71° | 24km/h | 2098m | 5.7m/s | 12.7°C | 77.3% | 0hPa | 2.9V | 00:00:00 | 00:18:21 | 00:00:00 | |
| 9A1FER-3 | 2026-09-05 11:22:17 | 45.81419 | 16.02219 | 61° | 24km/h | 2031m | 4.1m/s | 13.2°C | 75.2% | 0hPa | 2.9V | 00:00:00 | 00:18:06 | 00:00:00 | |
| 9A1FER-3 | 2026-09-05 11:22:02 | 45.81397 | 16.02090 | 77° | 24km/h | 1954m | 5.8m/s | 13.6°C | 72.7% | 0hPa | 2.9V | 00:00:00 | 00:17:51 | 00:00:00 | |
| 9A1FER-3 | 2026-09-05 11:21:47 | 45.81383 | 16.01961 | 87° | 22km/h | 1878m | 4.7m/s | 14.2°C | 71.8% | 0hPa | 2.9V | 00:00:00 | 00:17:36 | 00:00:00 | |
| 9A1FER-3 | 2026-09-05 11:21:32 | 45.81383 | 16.01848 | 88° | 18km/h | 1806m | 5.5m/s | 14.5°C | 72.4% | 0hPa | 2.9V | 00:00:00 | 00:17:21 | 00:00:00 | |
| 9A1FER-3 | 2026-09-05 11:21:17 | 45.81370 | 16.01758 | 94° | 16km/h | 1721m | 5.3m/s | 14.7°C | 76.2% | 0hPa | 2.9V | 00:00:00 | 00:17:06 | 00:00:00 | |
| 9A1FER-3 | 2026-09-05 11:21:02 | 45.81382 | 16.01671 | 133° | 15km/h | 1654m | 3.8m/s | 15.1°C | 76.6% | 0hPa | 2.9V | 00:00:00 | 00:16:51 | 08:30:00 | |
| 9A1FER-3 | 2026-09-05 11:20:47 | 45.81382 | 16.01600 | 26° | 5km/h | 1575m | 4.5m/s | 15.7°C | 74.2% | 0hPa | 2.9V | 00:00:00 | 00:16:36 | 00:00:00 | |
| 9A1FER-3 | 2026-09-05 11:20:32 | 45.81390 | 16.01578 | 79° | 9km/h | 1504m | 5.4m/s | 16.3°C | 72.1% | 0hPa | 2.9V | 00:00:00 | 00:16:21 | 00:00:00 | |
| 9A1FER-3 | 2026-09-05 11:20:17 | 45.81374 | 16.01544 | 81° | 9km/h | 1423m | 4.0m/s | 17.1°C | 69.1% | 0hPa | 2.9V | 00:00:00 | 00:16:06 | 00:00:00 | |
| 9A1FER-3 | 2026-09-05 11:20:02 | 45.81366 | 16.01516 | 237° | 7km/h | 1344m | 6.7m/s | 17.3°C | 67.5% | 0hPa | 2.9V | 00:00:00 | 00:15:51 | 00:00:00 | |
| 9A1FER-3 | 2026-09-05 11:19:47 | 45.81369 | 16.01540 | 242° | 13km/h | 1265m | 4.6m/s | 17.1°C | 65.1% | 0hPa | 2.9V | 00:00:00 | 00:15:36 | 00:00:00 | |
| 9A1FER-3 | 2026-09-05 11:19:32 | 45.81386 | 16.01604 | 230° | 20km/h | 1188m | 6.0m/s | 17.4°C | 61.6% | 0hPa | 2.9V | 00:00:00 | 00:15:21 | 00:00:00 | |
| 9A1FER-3 | 2026-09-05 11:19:17 | 45.81423 | 16.01701 | 225° | 24km/h | 1110m | 5.2m/s | 18.0°C | 59.0% | 0hPa | 2.9V | 00:00:00 | 00:15:06 | 00:00:00 | |
| 9A1FER-3 | 2026-09-05 11:19:02 | 45.81483 | 16.01795 | 229° | 26km/h | 1038m | 2.2m/s | 18.7°C | 57.0% | 0hPa | 2.9V | 00:00:00 | 00:14:51 | 00:00:00 | |
| 9A1FER-3 | 2026-09-05 11:18:47 | 45.81536 | 16.01902 | 250° | 27km/h | 972m | 6.1m/s | 19.4°C | 55.0% | 0hPa | 2.9V | 00:00:00 | 00:14:36 | 08:30:00 | |
| 9A1FER-3 | 2026-09-05 11:18:33 | 45.81606 | 16.02013 | 228° | 26km/h | 881m | 5.5m/s | 20.2°C | 52.6% | 0hPa | 0V | 00:00:00 | 00:14:21 | 00:00:00 | |
| 9A1FER-3 | 2026-09-05 11:18:17 | 45.81674 | 16.02108 | 248° | 26km/h | 808m | 4.8m/s | 20.9°C | 50.8% | 0hPa | 0V | 00:00:00 | 00:14:06 | 00:00:00 | |
| 9A1FER-3 | 2026-09-05 11:18:02 | 45.81721 | 16.02223 | 223° | 31km/h | 743m | 3.7m/s | 0°C | 0% | 0hPa | 0V | 00:00:00 | 00:13:51 | 00:00:00 | |
| 9A1FER-3 | 2026-09-05 11:17:47 | 45.81774 | 16.02364 | 240° | 31km/h | 673m | 5.5m/s | 0°C | 0% | 0hPa | 0V | 00:00:00 | 00:13:36 | 00:00:00 | |
| 9A1FER-3 | 2026-09-05 11:17:32 | 45.81837 | 16.02502 | 242° | 31km/h | 600m | 4.9m/s | 0°C | 0% | 0hPa | 0V | 00:00:00 | 00:13:21 | 00:00:00 | |
| 9A1FER-3 | 2026-09-05 11:17:17 | 45.81880 | 16.02659 | 269° | 33km/h | 531m | 5.6m/s | 0°C | 0% | 0hPa | 0V | 00:00:00 | 00:13:06 | 00:00:00 | |
| 9A1FER-3 | 2026-09-05 11:17:02 | 45.81914 | 16.02819 | 292° | 31km/h | 463m | 3.2m/s | 0°C | 0% | 0hPa | 0V | 00:00:00 | 00:12:51 | 00:00:00 | |
| 9A1FER-3 | 2026-09-05 11:16:47 | 45.81956 | 16.02962 | 220° | 35km/h | 389m | 6.0m/s | 0°C | 0% | 0hPa | 0V | 00:00:00 | 00:12:36 | 00:00:00 | |
| 9A1FER-3 | 2026-09-05 11:16:32 | 45.82013 | 16.03137 | 245° | 20km/h | 306m | 7.6m/s | 0°C | 0% | 0hPa | 0V | 00:00:00 | 00:12:21 | 00:00:00 |